Return to Metar
METAR CYNL 190100Z AUTO 19008KT 9SM CLR 25/04 A2984 RMK AO1 SLP085
METAR CYNL 190000Z AUTO 17009KT 9SM CLR 25/05 A2984 RMK AO1 SLP089
METAR CYNL 182300Z AUTO 17008KT 9SM CLR 26/06 A2985 RMK AO1 SLP094
METAR CYNL 182200Z AUTO 19007KT 9SM FEW076 25/06 A2987 RMK AO1 SLP102
SPECI CYNL 182115Z AUTO 22011KT 9SM FEW074 26/06 A2987 RMK AO1 WSHFT (21)15 SLP106
SPECI CYNL 182109Z AUTO 17010KT 9SM FEW074 26/06 A2987 RMK AO1 WSHFT (21)09 SLP106
METAR CYNL 182100Z AUTO 18009KT 9SM FEW074 26/06 A2987 RMK AO1 SLP107
METAR CYNL 182000Z AUTO 19010G17KT 9SM FEW200 25/06 A2989 RMK AO1 SLP111
METAR CYNL 181900Z AUTO 18012G20KT 9SM FEW066 24/07 A2990 RMK AO1 SLP111
METAR CYNL 181800Z AUTO 19009G16KT 9SM SCT066 24/07 A2991 RMK AO1 SLP115
METAR CYNL 181700Z AUTO 18010G16KT 9SM FEW074 23/07 A2992 RMK AO1 SLP118
METAR CYNL 181600Z AUTO 19014G20KT 9SM CLR 22/06 A2993 RMK AO1 SLP122
METAR CYNL 181500Z AUTO 18012G19KT 9SM CLR 22/06 A2994 RMK AO1 SLP126
METAR CYNL 181400Z AUTO 19008KT 9SM CLR 20/07 A2996 RMK AO1 SLP130
METAR CYNL 181300Z AUTO 19006KT 9SM CLR 18/07 A2997 RMK AO1 SLP135
METAR CYNL 181200Z AUTO 17004KT 9SM CLR 15/07 A2997 RMK AO1 SLP138
METAR CYNL 181100Z AUTO 16003KT 9SM CLR 12/06 A2998 RMK AO1 SLP142
METAR CYNL 181000Z AUTO 17002KT 9SM CLR 10/06 A2998 RMK AO1 SLP144
METAR CYNL 180900Z AUTO 20003KT 9SM CLR 11/06 A2998 RMK AO1 SLP145
METAR CYNL 180800Z AUTO 20004KT 9SM CLR 14/05 A2999 RMK AO1 SLP144
METAR CYNL 180700Z AUTO 22002KT 9SM CLR 14/06 A3000 RMK AO1 SLP148
METAR CYNL 180600Z AUTO 18004KT 9SM CLR 16/05 A3000 RMK AO1 SLP147
METAR CYNL 180500Z AUTO 18004KT 9SM CLR 17/05 A3001 RMK AO1 SLP148
METAR CYNL 180400Z AUTO 18004KT 9SM CLR 19/05 A3001 RMK AO1 SLP149
METAR CYNL 180300Z AUTO 18006KT 9SM CLR 22/04 A3001 RMK AO1 SLP145
METAR CYNL 180200Z AUTO 18006KT 9SM CLR 23/03 A3002 RMK AO1 SLP148
SPECI CYNL 180115Z AUTO 18007KT 9SM FEW084 24/02 A3002 RMK AO1 SLP151
SPECI CYNL 180112Z AUTO 19008KT 1 1/2SM FEW084 24/02 A3002 RMK AO1 SLP152
METAR CYNL 180100Z AUTO 18009KT 9SM FEW084 24/03 A3002 RMK AO1 SLP152
METAR CYNL 180000Z AUTO 21008G15KT 9SM CLR 24/02 A3003 RMK AO1 SLP155
METAR CYNL 172300Z AUTO 16007KT 9SM FEW086 24/02 A3004 RMK AO1 SLP163
METAR CYNL 172200Z AUTO 16012KT 9SM SCT084 24/02 A3005 RMK AO1 SLP171
METAR CYNL 172100Z AUTO 21006KT 150V270 9SM SCT082 24/02 A3007 RMK AO1 SLP175
METAR CYNL 172000Z AUTO 18003KT 9SM SCT080 22/02 A3008 RMK AO1 SLP180
METAR CYNL 171900Z AUTO 19008KT 9SM BKN082 23/03 A3008 RMK AO1 SLP182
METAR CYNL 171800Z AUTO 16006KT 9SM BKN070 22/04 A3009 RMK AO1 SLP185
METAR CYNL 171700Z AUTO 24006KT 9SM BKN070 21/05 A3010 RMK AO1 SLP186
METAR CYNL 171600Z AUTO 15008KT 9SM FEW072 22/03 A3010 RMK AO1 SLP186
METAR CYNL 171500Z AUTO 12002KT 5SM CLR 21/07 A3011 RMK AO1 SLP185
METAR CYNL 171400Z AUTO 00000KT 9SM FEW082 17/09 A3012 RMK AO1 SLP187
METAR CYNL 171300Z AUTO 00000KT 9SM BKN080 15/09 A3012 RMK AO1 SLP188
METAR CYNL 171200Z AUTO 00000KT 9SM SCT078 11/09 A3011 RMK AO1 SLP190
METAR CYNL 171100Z AUTO 24002KT 9SM CLR 08/08 A3010 RMK AO1 SLP191
METAR CYNL 171000Z AUTO 23003KT 9SM CLR 09/07 A3009 RMK AO1 SLP186
METAR CYNL 170900Z AUTO 25002KT 9SM CLR 09/07 A3009 RMK AO1 SLP185
METAR CYNL 170800Z AUTO 26003KT 9SM CLR 09/07 A3008 RMK AO1 SLP181
METAR CYNL 170700Z AUTO 21003KT 9SM CLR 10/06 A3008 RMK AO1 SLP179
METAR CYNL 170600Z AUTO 00000KT 9SM CLR 11/05 A3007 RMK AO1 SLP177
METAR CYNL 170500Z AUTO 00000KT 9SM CLR 13/07 A3007 RMK AO1 SLP175
METAR CYNL 170400Z AUTO 14003KT 9SM CLR 17/07 A3006 RMK AO1 SLP168
METAR CYNL 170300Z AUTO 13004KT 9SM CLR 20/04 A3005 RMK AO1 SLP162
METAR CYNL 170200Z AUTO 22003KT 9SM SCT086 22/02 A3005 RMK AO1 SLP160
METAR CYNL 170100Z AUTO 17012G16KT 110V240 9SM OVC078 22/02 A3004 RMK AO1 WSHFT (00)57 SLP162
SPECI CYNL 170057Z AUTO 17012G16KT 110V240 9SM BKN078 22/02 A3003 RMK AO1 WSHFT (00)57 SLP161
METAR CYNL 170000Z AUTO 13004KT 9SM BKN084 21/02 A3004 RMK AO1 SLP163
METAR CYNL 162300Z AUTO 00000KT 9SM SCT086 22/01 A3004 RMK AO1 SLP167
METAR CYNL 162200Z AUTO 00000KT 9SM BKN082 21/01 A3004 RMK AO1 SLP169
METAR CYNL 162100Z AUTO 19006KT 9SM BKN080 22/01 A3004 RMK AO1 SLP171
METAR CYNL 162000Z AUTO 22005KT 170V270 9SM BKN082 22/01 A3004 RMK AO1 SLP171
METAR CYNL 161900Z AUTO 18010KT 120V240 9SM SCT082 22/M00 A3004 RMK AO1 SLP170
METAR CYNL 161800Z AUTO VRB05KT 9SM FEW150 21/00 A3005 RMK AO1 SLP171
METAR CYNL 161700Z AUTO 19004KT 9SM CLR 20/M01 A3006 RMK AO1 SLP174
METAR CYNL 161600Z AUTO 12007KT 9SM CLR 20/01 A3006 RMK AO1 SLP174
METAR CYNL 161500Z AUTO 13006KT 100V160 9SM CLR 19/01 A3006 RMK AO1 SLP173
METAR CYNL 161400Z AUTO 10004KT 9SM SCT096 15/05 A3006 RMK AO1 SLP175
METAR CYNL 161300Z AUTO 07003KT 9SM CLR 14/03 A3005 RMK AO1 SLP171
METAR CYNL 161200Z AUTO 07002KT 9SM FEW160 10/04 A3005 RMK AO1 SLP173
METAR CYNL 161100Z AUTO 05004KT 9SM CLR 08/03 A3004 RMK AO1 SLP173
METAR CYNL 161000Z AUTO 05003KT 9SM FEW160 06/02 A3004 RMK AO1 SLP173
METAR CYNL 160900Z AUTO 05004KT 9SM FEW170 07/03 A3004 RMK AO1 SLP171
METAR CYNL 160800Z AUTO 04002KT 9SM CLR 08/02 A3003 RMK AO1 SLP168
METAR CYNL 160700Z AUTO 04003KT 9SM FEW094 10/03 A3003 RMK AO1 SLP165
METAR CYNL 160600Z AUTO 07003KT 9SM OVC100 11/04 A3003 RMK AO1 SLP164
METAR CYNL 160500Z AUTO 08003KT 9SM OVC098 11/04 A3002 RMK AO1 SLP164
METAR CYNL 160400Z AUTO 09004KT 9SM CLR 13/03 A3002 RMK AO1 SLP162
METAR CYNL 160300Z AUTO 10004KT 9SM CLR 16/01 A3002 RMK AO1 SLP159
METAR CYNL 160200Z AUTO 11008KT 9SM CLR 19/00 A3001 RMK AO1 SLP154
METAR CYNL 160100Z AUTO 12009G15KT 9SM CLR 19/M00 A3000 RMK AO1 SLP150
METAR CYNL 160000Z AUTO 11010KT 9SM FEW150 20/M00 A2999 RMK AO1 SLP148
METAR CYNL 152300Z AUTO 15011KT 9SM CLR 20/01 A2998 RMK AO1 SLP147
SPECI CYNL 152213Z AUTO 15011KT 9SM FEW074 20/02 A2999 RMK AO1 WSHFT (22)13 SLP150
METAR CYNL 152200Z AUTO 11012KT 9SM FEW074 20/01 A2998 RMK AO1 SLP150
SPECI CYNL 152116Z AUTO 16010G19KT 9SM FEW072 20/02 A2998 RMK AO1 WSHFT (21)16 SLP149
METAR CYNL 152100Z AUTO 14012G19KT 9SM FEW072 SCT140 20/02 A2998 RMK AO1 SLP147
SPECI CYNL 152041Z AUTO 16010G17KT 9SM SCT072 BKN140 20/02 A2998 RMK AO1 WSHFT (20)41 SLP147
METAR CYNL 152000Z AUTO 12009KT 9SM BKN068 BKN140 19/02 A2998 RMK AO1 SLP150
METAR CYNL 151900Z AUTO 17009KT 9SM BKN066 19/03 A2998 RMK AO1 SLP149
METAR CYNL 151800Z AUTO 15007KT 9SM SCT062 19/04 A2998 RMK AO1 SLP150
METAR CYNL 151700Z AUTO 18008KT 9SM BKN062 17/04 A2998 RMK AO1 SLP149
METAR CYNL 151600Z AUTO 18007KT 9SM FEW180 16/06 A2998 RMK AO1 SLP148
METAR CYNL 151500Z AUTO 17009KT 9SM SCT098 BKN170 16/07 A2997 RMK AO1 SLP144
METAR CYNL 151400Z AUTO 17009KT 9SM SCT084 16/07 A2996 RMK AO1 SLP139
METAR CYNL 151300Z AUTO 14007KT 9SM FEW160 14/05 A2996 RMK AO1 SLP138
METAR CYNL 151200Z AUTO 12005KT 9SM BKN086 BKN160 13/04 A2994 RMK AO1 SLP134
METAR CYNL 151100Z AUTO 07007KT 9SM SCT084 BKN150 10/04 A2993 RMK AO1 SLP132
METAR CYNL 151000Z AUTO 08004KT 9SM BKN094 OVC120 10/04 A2992 RMK AO1 SLP128
METAR CYNL 150900Z AUTO 06005KT 9SM SCT100 11/05 A2992 RMK AO1 SLP125
METAR CYNL 150800Z AUTO 06006KT 9SM OVC096 12/06 A2992 RMK AO1 SLP125
METAR CYNL 150700Z AUTO 03008KT 8SM FEW039 SCT047 11/09 A2991 RMK AO1 SLP123
METAR CYNL 150600Z AUTO 05007KT 9SM FEW044 13/07 A2991 RMK AO1 SLP121
SPECI CYNL 150524Z AUTO 20005KT 8SM FEW005 SCT027 BKN047 13/08 A2992 RMK AO1 PRESRR SLP124
SPECI CYNL 150522Z AUTO 20004KT 9SM VV026 13/08 A2992 RMK AO1 PRESRR SLP124
SPECI CYNL 150508Z AUTO 00000KT 9SM FEW005 SCT044 BKN062 14/09 A2992 RMK AO1 PRESRR SLP122
METAR CYNL 150500Z AUTO 24005KT 200V270 9SM VV034 14/07 A2991 RMK AO1 PRESRR SLP120
METAR CYNL 150400Z AUTO 09004KT 9SM SCT100 16/03 A2989 RMK AO1 SLP111
METAR CYNL 150300Z AUTO 11003KT 9SM CLR 17/03 A2988 RMK AO1 SLP106
METAR CYNL 150200Z AUTO 12007KT 9SM CLR 18/02 A2986 RMK AO1 SLP101
METAR CYNL 150100Z AUTO 13009KT 9SM CLR 19/01 A2985 RMK AO1 SLP100
METAR CYNL 150000Z AUTO 12008G17KT 9SM CLR 20/02 A2984 RMK AO1 SLP099
METAR CYNL 142300Z AUTO 11014G20KT 9SM CLR 20/02 A2985 RMK AO1 SLP102
METAR CYNL 142200Z AUTO 13013G20KT 9SM SCT150 BKN210 21/00 A2985 RMK AO1 SLP101
METAR CYNL 142100Z AUTO 15013G21KT 9SM FEW160 20/01 A2984 RMK AO1 SLP097
METAR CYNL 142000Z AUTO 12018KT 9SM CLR 21/M00 A2983 RMK AO1 SLP094
METAR CYNL 141900Z AUTO 13012G24KT 9SM CLR 21/03 A2982 RMK AO1 SLP091
METAR CYNL 141800Z AUTO 12014G25KT 9SM CLR 21/02 A2982 RMK AO1 SLP091
METAR CYNL 141700Z AUTO 13017G24KT 9SM CLR 20/03 A2981 RMK AO1 SLP090
METAR CYNL 141600Z AUTO 12014G22KT 9SM FEW190 19/02 A2981 RMK AO1 SLP089
METAR CYNL 141500Z AUTO 14013G21KT 9SM CLR 18/06 A2981 RMK AO1 SLP086
METAR CYNL 141400Z AUTO 12009KT 9SM CLR 16/06 A2981 RMK AO1 SLP087
METAR CYNL 141300Z AUTO 08005KT 9SM CLR 13/06 A2981 RMK AO1 SLP087
METAR CYNL 141200Z AUTO 08006KT 9SM FEW082 11/05 A2980 RMK AO1 SLP085
METAR CYNL 141100Z AUTO 07005KT 11/05 A2979 RMK AO1 SLP082
METAR CYNL 141000Z AUTO 10006KT 9SM CLR 12/04 A2978 RMK AO1 SLP076
METAR CYNL 140900Z AUTO 11008KT 9SM CLR 13/05 A2977 RMK AO1 SLP071
METAR CYNL 140800Z AUTO 09005KT 9SM OVC082 13/06 A2976 RMK AO1 SLP069
METAR CYNL 140700Z AUTO 07005KT 9SM SCT062 OVC076 12/07 A2976 RMK AO1 SLP070
METAR CYNL 140600Z AUTO 09006KT 9SM CLR 13/07 A2975 RMK AO1 SLP066
METAR CYNL 140500Z AUTO 10005KT 9SM CLR 13/07 A2975 RMK AO1 SLP064
METAR CYNL 140400Z AUTO 09005KT 9SM CLR 15/07 A2975 RMK AO1 SLP064
METAR CYNL 140300Z AUTO 11007KT 9SM CLR 17/07 A2973 RMK AO1 SLP056
METAR CYNL 140200Z AUTO 12009G15KT 9SM CLR 19/06 A2973 RMK AO1 SLP053
METAR CYNL 140100Z AUTO 12009G15KT 9SM CLR 19/05 A2972 RMK AO1 SLP055
METAR CYNL 140000Z AUTO 14009G17KT 9SM CLR 20/07 A2972 RMK AO1 SLP053
METAR CYNL 132300Z AUTO 13009KT 9SM CLR 21/07 A2971 RMK AO1 SLP054
METAR CYNL 132200Z AUTO 14008KT 9SM SCT060 21/08 A2971 RMK AO1 SLP055
METAR CYNL 132100Z AUTO 11010G18KT 9SM FEW054 22/08 A2971 RMK AO1 SLP055
METAR CYNL 132000Z AUTO 13004KT 9SM FEW058 SCT070 21/06 A2972 RMK AO1 SLP057
METAR CYNL 131900Z AUTO 14003KT 9SM FEW058 21/06 A2972 RMK AO1 SLP058
METAR CYNL 131800Z AUTO 15006KT 9SM FEW140 20/07 A2973 RMK AO1 SLP059
METAR CYNL 131700Z AUTO 12007KT 9SM FEW180 19/07 A2973 RMK AO1 SLP060
METAR CYNL 131600Z AUTO 12006KT 080V160 9SM FEW110 20/07 A2973 RMK AO1 SLP059
METAR CYNL 131500Z AUTO 17002KT 9SM CLR 20/08 A2974 RMK AO1 SLP060
METAR CYNL 131400Z AUTO 00000KT 9SM SCT120 17/08 A2974 RMK AO1 SLP062
METAR CYNL 131300Z AUTO 00000KT 9SM FEW120 15/07 A2975 RMK AO1 SLP065
METAR CYNL 131200Z AUTO 00000KT 9SM SCT130 13/07 A2975 RMK AO1 SLP067
METAR CYNL 131100Z AUTO 21002KT 9SM BKN120 11/06 A2976 RMK AO1 SLP073
METAR CYNL 131000Z AUTO 00000KT 9SM OVC084 11/05 A2977 RMK AO1 SLP073
METAR CYNL 130900Z AUTO 00000KT 9SM OVC088 11/05 A2977 RMK AO1 SLP074
METAR CYNL 130800Z AUTO 00000KT 9SM SCT088 11/05 A2978 RMK AO1 SLP076
METAR CYNL 130700Z AUTO 03004KT 9SM BKN094 12/04 A2979 RMK AO1 SLP080
METAR CYNL 130600Z AUTO 00000KT 9SM OVC110 13/03 A2980 RMK AO1 SLP082
METAR CYNL 130500Z AUTO 09002KT 9SM OVC120 14/05 A2981 RMK AO1 SLP084
METAR CYNL 130400Z AUTO 00000KT 9SM BKN130 16/03 A2982 RMK AO1 SLP088
METAR CYNL 130300Z AUTO 10006KT 9SM CLR 18/M00 A2983 RMK AO1 SLP088
METAR CYNL 130200Z AUTO 10004KT 9SM CLR 19/M00 A2984 RMK AO1 SLP094
METAR CYNL 130100Z AUTO 12009KT 9SM CLR 20/M01 A2985 RMK AO1 SLP098
METAR CYNL 130000Z AUTO 09009KT 9SM CLR 20/M01 A2986 RMK AO1 SLP103
METAR CYNL 122300Z AUTO 10005KT 9SM CLR 22/M01 A2987 RMK AO1 SLP109
METAR CYNL 122200Z AUTO 04004KT 9SM CLR 23/M05 A2987 RMK AO1 SLP113
METAR CYNL 122100Z AUTO 32007KT 270V010 9SM CLR 23/M06 A2989 RMK AO1 SLP119
METAR CYNL 122000Z AUTO 00010KT 330V030 9SM FEW210 22/M05 A2991 RMK AO1 SLP127
METAR CYNL 121900Z AUTO 33006KT 9SM FEW096 22/M03 A2992 RMK AO1 SLP133
METAR CYNL 121800Z AUTO 34006KT 9SM CLR 21/M03 A2994 RMK AO1 SLP135
METAR CYNL 121700Z AUTO 31008KT 280V350 9SM CLR 21/M02 A2995 RMK AO1 SLP141
METAR CYNL 121600Z AUTO 28009KT 250V320 9SM CLR 20/M02 A2996 RMK AO1 SLP143
METAR CYNL 121500Z AUTO 28007KT 9SM CLR 19/M01 A2997 RMK AO1 SLP147
METAR CYNL 121400Z AUTO 25005KT 9SM CLR 16/01 A2998 RMK AO1 SLP153
METAR CYNL 121300Z AUTO 23005KT 9SM CLR 13/02 A2999 RMK AO1 SLP155
METAR CYNL 121200Z AUTO 24003KT 9SM CLR 09/03 A3000 RMK AO1 SLP159
METAR CYNL 121100Z AUTO 24004KT 9SM CLR 06/03 A3000 RMK AO1 SLP166
METAR CYNL 121000Z AUTO 24006KT 9SM CLR 05/03 A3001 RMK AO1 SLP168
METAR CYNL 120900Z AUTO 23004KT 9SM CLR 05/03 A3001 RMK AO1 SLP169
METAR CYNL 120800Z AUTO 25003KT 9SM CLR 05/03 A3002 RMK AO1 SLP172
METAR CYNL 120700Z AUTO 24003KT 9SM CLR 06/04 A3001 RMK AO1 SLP170
METAR CYNL 120600Z AUTO 24003KT 9SM CLR 06/05 A3002 RMK AO1 SLP171
METAR CYNL 120500Z AUTO 23002KT 9SM FEW110 09/05 A3002 RMK AO1 SLP169
METAR CYNL 120400Z AUTO 21003KT 9SM SCT110 10/05 A3002 RMK AO1 SLP170
METAR CYNL 120300Z AUTO 00000KT 9SM FEW076 SCT096 10/06 A3003 RMK AO1 SLP174
METAR CYNL 120200Z AUTO 25006KT 9SM BKN086 15/01 A3002 RMK AO1 SLP167
METAR CYNL 120100Z AUTO 26009G22KT 9SM FEW110 17/M01 A3002 RMK AO1 PRESFR SLP167
METAR CYNL 120000Z AUTO 27011KT 9SM FEW078 SCT098 15/M00 A3005 RMK AO1 SLP182
METAR CYNL 112300Z AUTO 29010G18KT 9SM FEW033 15/M01 A3007 RMK AO1 SLP191
METAR CYNL 112200Z AUTO 28009G18KT 9SM BKN068 15/M01 A3008 RMK AO1 SLP194
SPECI CYNL 112132Z AUTO 26012G18KT 9SM FEW068 15/M01 A3008 RMK AO1 WSHFT (21)32 SLP195
SPECI CYNL 112123Z AUTO 27011G17KT 9SM FEW066 15/M01 A3008 RMK AO1 WSHFT (21)23 SLP195
SPECI CYNL 112115Z AUTO 29013G17KT 250V320 9SM FEW068 16/M01 A3008 RMK AO1 WSHFT (21)15 SLP194
METAR CYNL 112100Z AUTO 27009G18KT 9SM FEW120 15/M02 A3008 RMK AO1 WSHFT (20)56 SLP197
SPECI CYNL 112056Z AUTO 26010G18KT 9SM FEW220 15/M01 A3008 RMK AO1 WSHFT (20)56 SLP197
METAR CYNL 112000Z AUTO 27005KT 9SM FEW088 SCT220 14/M02 A3009 RMK AO1 SLP202
METAR CYNL 111900Z AUTO 32006G15KT 9SM FEW066 14/M02 A3010 RMK AO1 SLP203
METAR CYNL 111800Z AUTO 32007G15KT 9SM CLR 13/M03 A3010 RMK AO1 SLP203
METAR CYNL 111700Z AUTO 31008KT 280V340 9SM CLR 12/M04 A3010 RMK AO1 SLP206
METAR CYNL 111600Z AUTO 31007KT 9SM CLR 11/M04 A3011 RMK AO1 SLP208
METAR CYNL 111500Z AUTO 01006KT 9SM CLR 10/M04 A3011 RMK AO1 SLP206
METAR CYNL 111400Z AUTO 33003KT 9SM CLR 09/M02 A3011 RMK AO1 SLP206
METAR CYNL 111300Z AUTO 30003KT 9SM CLR 07/M00 A3011 RMK AO1 SLP208
METAR CYNL 111200Z AUTO 29006KT 9SM CLR 05/M01 A3010 RMK AO1 SLP204
METAR CYNL 111100Z AUTO 29005KT 9SM BKN068 03/M02 A3009 RMK AO1 SLP203
METAR CYNL 111000Z AUTO 27005KT 9SM CLR 02/M02 A3007 RMK AO1 SLP198
METAR CYNL 110900Z AUTO 24002KT 9SM CLR 02/M01 A3006 RMK AO1 SLP196
METAR CYNL 110800Z AUTO 23004KT 9SM FEW072 02/M00 A3006 RMK AO1 SLP194
METAR CYNL 110700Z AUTO 24003KT 9SM BKN078 03/01 A3005 RMK AO1 SLP192
METAR CYNL 110600Z AUTO 24004KT 9SM SCT076 03/M00 A3005 RMK AO1 SLP192
METAR CYNL 110500Z AUTO 00000KT 9SM CLR 03/M00 A3006 RMK AO1 SLP193
METAR CYNL 110400Z AUTO 29003KT 9SM CLR 06/M01 A3005 RMK AO1 SLP187
METAR CYNL 110300Z AUTO 32007KT 9SM OVC056 08/M03 A3005 RMK AO1 SLP187
METAR CYNL 110200Z AUTO 34011KT 9SM BKN062 08/M02 A3003 RMK AO1 SLP182
METAR CYNL 110100Z AUTO 31008G17KT 9SM BKN060 10/M02 A3002 RMK AO1 SLP178
METAR CYNL 110000Z AUTO 32007KT 9SM FEW052 BKN064 10/M02 A3001 RMK AO1 SLP176
METAR CYNL 102300Z AUTO 32007KT 9SM BKN058 10/M02 A3001 RMK AO1 SLP177
METAR CYNL 102200Z AUTO 29007KT 9SM OVC054 10/M02 A3001 RMK AO1 SLP176
METAR CYNL 102100Z AUTO 32010G17KT 9SM BKN052 OVC120 09/M02 A3000 RMK AO1 SLP174
SPECI CYNL 102020Z AUTO 29010G16KT 9SM BKN050 BKN210 09/M03 A2999 RMK AO1 WSHFT (20)20 SLP170
SPECI CYNL 102006Z AUTO 34011G17KT 9SM BKN050 09/M03 A2999 RMK AO1 WSHFT (20)06 SLP170
METAR CYNL 102000Z AUTO 32009KT 9SM BKN052 BKN200 10/M03 A2999 RMK AO1 SLP169
SPECI CYNL 101928Z AUTO 29011G18KT 9SM BKN050 09/M03 A2998 RMK AO1 WSHFT (19)28 SLP167
SPECI CYNL 101919Z AUTO 34013KT 9SM BKN050 09/M03 A2998 RMK AO1 WSHFT (19)19 SLP166
METAR CYNL 101900Z AUTO 32009G16KT 9SM BKN049 09/M03 A2998 RMK AO1 WSHFT (18)52 SLP166
SPECI CYNL 101852Z AUTO 33011G17KT 9SM BKN048 09/M03 A2998 RMK AO1 WSHFT (18)52 SLP167
SPECI CYNL 101846Z AUTO 28012G18KT 9SM BKN049 09/M03 A2998 RMK AO1 WSHFT (18)46 SLP167
METAR CYNL 101800Z AUTO 31009G18KT 9SM BKN047 08/M03 A2997 RMK AO1 SLP164
METAR CYNL 101700Z AUTO 29009G17KT 9SM FEW040 09/M02 A2996 RMK AO1 SLP160
SPECI CYNL 101620Z AUTO 29010G16KT 9SM SCT037 08/M02 A2995 RMK AO1 WSHFT (16)20 SLP157
METAR CYNL 101600Z AUTO 32007KT 9SM BKN035 07/M02 A2995 RMK AO1 SLP158
METAR CYNL 101500Z AUTO 34010KT 9SM BKN034 08/M00 A2995 RMK AO1 SLP154
SPECI CYNL 101438Z AUTO 35009KT 9SM SCT021 BKN031 07/00 A2994 RMK AO1 SLP153
SPECI CYNL 101437Z AUTO 34008KT 9SM SCT021 BKN028 BKN034 07/00 A2994 RMK AO1 SLP153
SPECI CYNL 101433Z AUTO 33006KT 9SM SCT021 BKN031 06/01 A2994 RMK AO1 SLP153
SPECI CYNL 101432Z AUTO 33006KT 9SM SCT021 BKN029 BKN033 06/00 A2994 RMK AO1 SLP153
SPECI CYNL 101431Z AUTO 33005KT 9SM FEW018 SCT022 BKN032 06/01 A2994 RMK AO1 SLP153
SPECI CYNL 101430Z AUTO 32005KT 9SM FEW017 SCT022 BKN029 06/01 A2994 RMK AO1 SLP153
SPECI CYNL 101429Z AUTO 31006KT 9SM FEW017 SCT022 BKN032 06/01 A2994 RMK AO1 SLP153
SPECI CYNL 101428Z AUTO 32006KT 9SM FEW015 SCT019 BKN025 06/01 A2994 RMK AO1 SLP153
SPECI CYNL 101425Z AUTO 34007KT 9SM FEW014 SCT019 BKN033 06/01 A2994 RMK AO1 SLP153
METAR CYNL 101400Z AUTO 27005KT 9SM SCT014 BKN022 05/02 A2994 RMK AO1 SLP153
SPECI CYNL 101339Z AUTO 32006KT 9SM FEW011 SCT014 BKN019 05/02 A2994 RMK AO1 SLP153
SPECI CYNL 101331Z AUTO 32007KT 9SM FEW009 SCT012 BKN014 05/02 A2994 RMK AO1 SLP153
SPECI CYNL 101329Z AUTO 33006KT 9SM FEW009 SCT012 BKN019 05/02 A2994 RMK AO1 SLP152
SPECI CYNL 101325Z AUTO 33005KT 9SM SCT010 BKN044 05/02 A2994 RMK AO1 SLP152
SPECI CYNL 101322Z AUTO 33006KT 9SM SCT010 BKN015 05/03 A2994 RMK AO1 SLP152
SPECI CYNL 101319Z AUTO 32005KT 9SM SCT009 BKN011 06/03 A2994 RMK AO1 SLP152
SPECI CYNL 101318Z AUTO 32005KT 9SM BKN009 06/03 A2994 RMK AO1 SLP152
SPECI CYNL 101310Z AUTO 34006KT 9SM SCT009 BKN011 05/03 A2994 RMK AO1 SLP152
SPECI CYNL 101309Z AUTO 34005KT 9SM BKN009 05/03 A2994 RMK AO1 SLP153
SPECI CYNL 101306Z AUTO 32004KT 9SM SCT009 BKN012 05/03 A2994 RMK AO1 SLP153
SPECI CYNL 101303Z AUTO 32006KT 9SM SCT008 BKN015 05/03 A2994 RMK AO1 SLP153
SPECI CYNL 101301Z AUTO 34006KT 9SM SCT008 BKN040 05/03 A2994 RMK AO1 SLP153
METAR CYNL 101300Z AUTO 34005KT 9SM SCT008 BKN024 05/03 A2994 RMK AO1 SLP153
SPECI CYNL 101256Z AUTO 33004KT 9SM SCT008 BKN024 05/03 A2994 RMK AO1 SLP151
SPECI CYNL 101251Z AUTO 32005KT 9SM BKN009 BKN024 OVC040 04/03 A2994 RMK AO1 SLP152
SPECI CYNL 101248Z AUTO 31005KT 9SM SCT009 BKN014 OVC040 04/03 A2994 RMK AO1 SLP153
SPECI CYNL 101244Z AUTO 32006KT 9SM SCT008 BKN016 OVC041 04/03 A2994 RMK AO1 SLP153
SPECI CYNL 101243Z AUTO 32005KT 9SM SCT008 BKN014 BKN024 04/03 A2994 RMK AO1 SLP153
SPECI CYNL 101234Z AUTO 30004KT 9SM FEW009 BKN015 OVC024 04/03 A2994 RMK AO1 SLP153
METAR CYNL 101200Z AUTO 29004KT 9SM BKN017 OVC023 03/02 A2994 RMK AO1 SLP154
SPECI CYNL 101132Z AUTO 30006KT 3SM FEW009 SCT016 OVC020 03/02 A2994 RMK AO1 SLP156
SPECI CYNL 101131Z AUTO 30006KT 2 1/2SM FEW009 SCT016 BKN020 03/02 A2994 RMK AO1 SLP156
SPECI CYNL 101130Z AUTO 30005KT 1 3/4SM FEW009 SCT016 BKN020 03/02 A2994 RMK AO1 SLP156
SPECI CYNL 101127Z AUTO 31004KT 1 1/4SM FEW009 BKN020 OVC028 03/02 A2994 RMK AO1 SLP156
SPECI CYNL 101126Z AUTO 31004KT 2 1/2SM FEW009 BKN020 OVC028 03/02 A2994 RMK AO1 SLP156
SPECI CYNL 101124Z AUTO 32004KT 9SM FEW009 BKN020 OVC027 03/02 A2994 RMK AO1 SLP156
SPECI CYNL 101106Z AUTO 00000KT 9SM BKN024 BKN029 03/02 A2994 RMK AO1 SLP154
SPECI CYNL 101104Z AUTO 28002KT 9SM BKN025 03/02 A2994 RMK AO1 SLP154
METAR CYNL 101100Z AUTO 00000KT 9SM BKN023 BKN029 03/02 A2994 RMK AO1 SLP154
SPECI CYNL 101041Z AUTO 25004KT 9SM BKN024 03/02 A2994 RMK AO1 SLP153
METAR CYNL 101000Z AUTO 26003KT 9SM SCT024 03/02 A2994 RMK AO1 SLP155
SPECI CYNL 100950Z AUTO 25005KT 9SM SCT021 BKN034 03/01 A2994 RMK AO1 SLP155
SPECI CYNL 100948Z AUTO 24007KT 9SM BKN023 03/01 A2994 RMK AO1 SLP155
SPECI CYNL 100946Z AUTO 24005KT 9SM SCT021 BKN026 03/01 A2994 RMK AO1 SLP155
SPECI CYNL 100945Z AUTO 24005KT 9SM BKN024 03/01 A2994 RMK AO1 SLP155
SPECI CYNL 100944Z AUTO 25005KT 9SM FEW022 BKN026 03/01 A2994 RMK AO1 SLP155
METAR CYNL 100900Z AUTO 23003KT 9SM FEW020 BKN072 04/02 A2994 RMK AO1 SLP154
SPECI CYNL 100821Z AUTO 29006KT 9SM SCT007 04/01 A2995 RMK AO1 SLP160
SPECI CYNL 100819Z AUTO 30006KT 9SM VV009 04/01 A2995 RMK AO1 SLP160
SPECI CYNL 100816Z AUTO 30007KT 9SM VV010 04/01 A2996 RMK AO1 SLP160
SPECI CYNL 100813Z AUTO 30006KT 8SM FEW007 04/01 A2996 RMK AO1 SLP160
METAR CYNL 100800Z AUTO 30007KT 9SM FEW064 05/00 A2995 RMK AO1 SLP159
METAR CYNL 100700Z AUTO 25004KT 9SM FEW058 BKN072 03/00 A2995 RMK AO1 SLP162
METAR CYNL 100600Z AUTO 00000KT 9SM FEW062 03/M00 A2996 RMK AO1 SLP165
METAR CYNL 100500Z AUTO 24003KT 9SM FEW066 BKN098 05/M01 A2998 RMK AO1 SLP169
METAR CYNL 100400Z AUTO 25004KT 9SM SCT092 06/M01 A2998 RMK AO1 SLP168
METAR CYNL 100300Z AUTO 28006KT 9SM FEW062 07/M02 A2998 RMK AO1 SLP167
METAR CYNL 100200Z AUTO 29006KT 9SM FEW038 BKN054 07/M02 A2998 RMK AO1 SLP169
METAR CYNL 100100Z AUTO 26006KT 9SM FEW074 09/M01 A2998 RMK AO1 SLP167
METAR CYNL 100000Z AUTO 27007G15KT 9SM SCT054 BKN068 08/M02 A2999 RMK AO1 SLP173
METAR CYNL 092300Z AUTO 28007G16KT 9SM SCT040 BKN170 08/M01 A2999 RMK AO1 SLP170
METAR CYNL 092200Z AUTO 32015G22KT 9SM SCT030 BKN041 08/01 A2998 RMK AO1 WSHFT (22)00 SLP171
METAR CYNL 092100Z AUTO 28011G22KT 9SM FEW018 SCT031 06/02 A2998 RMK AO1 SLP170
METAR CYNL 092000Z AUTO 29010KT 9SM SCT017 BKN060 05/02 A2997 RMK AO1 SLP169
SPECI CYNL 091959Z AUTO 29008KT 9SM SCT017 BKN060 BKN210 05/02 A2997 RMK AO1 SLP168
SPECI CYNL 091958Z AUTO 30007KT 9SM SCT017 BKN025 BKN210 05/02 A2997 RMK AO1 SLP168
SPECI CYNL 091949Z AUTO 28010G17KT 3SM SCT016 BKN022 BKN210 05/02 A2997 RMK AO1 SLP168
SPECI CYNL 091947Z AUTO 27012KT 2 1/2SM SCT017 BKN023 BKN200 05/02 A2997 RMK AO1 SLP168
SPECI CYNL 091943Z AUTO 26009G15KT 5SM BKN019 06/02 A2997 RMK AO1 SLP166
METAR CYNL 091900Z AUTO 26010G19KT 9SM FEW021 SCT052 BKN200 06/01 A2996 RMK AO1 SLP164
METAR CYNL 091800Z AUTO 28010KT 9SM FEW014 SCT050 BKN210 05/02 A2996 RMK AO1 SLP162
SPECI CYNL 091751Z AUTO 27005KT 9SM SCT014 BKN050 04/02 A2996 RMK AO1 SLP164
SPECI CYNL 091744Z AUTO 29005KT 9SM BKN014 BKN170 OVC210 03/02 A2996 RMK AO1 SLP165
SPECI CYNL 091743Z AUTO 28006KT 9SM BKN015 BKN062 03/02 A2996 RMK AO1 SLP166
SPECI CYNL 091739Z AUTO 29007G17KT 6SM VV014 03/01 A2996 RMK AO1 SLP166
SPECI CYNL 091725Z AUTO 27009KT 9SM BKN016 05/01 A2996 RMK AO1 SLP162
SPECI CYNL 091708Z AUTO 30007G20KT 9SM FEW014 SCT021 BKN096 04/01 A2996 RMK AO1 SLP164
SPECI CYNL 091704Z AUTO 30009G20KT 7SM VV015 04/02 A2996 RMK AO1 SLP163
SPECI CYNL 091701Z AUTO 31012G20KT 4SM FEW014 SCT021 BKN200 04/02 A2996 RMK AO1 SLP162
METAR CYNL 091700Z AUTO 30013G20KT 2 1/2SM FEW017 SCT096 BKN200 05/02 A2996 RMK AO1 SLP162
SPECI CYNL 091659Z AUTO 30014G20KT 2 1/2SM FEW018 SCT096 05/02 A2996 RMK AO1 SLP161
SPECI CYNL 091608Z AUTO 28009G16KT 9SM FEW014 SCT019 BKN037 04/01 A2995 RMK AO1 SLP161
SPECI CYNL 091604Z AUTO 28010G16KT 3SM VV015 04/01 A2995 RMK AO1 SLP161
SPECI CYNL 091602Z AUTO 27011KT 2 1/2SM FEW014 SCT029 BKN048 04/01 A2995 RMK AO1 SLP161
METAR CYNL 091600Z AUTO 30012KT 4SM FEW014 SCT037 BKN048 04/01 A2995 RMK AO1 SLP160
SPECI CYNL 091514Z AUTO 28010G16KT 9SM FEW014 SCT020 BKN041 04/00 A2994 RMK AO1 SLP158
METAR CYNL 091500Z AUTO 28010G17KT 9SM FEW010 BKN019 04/00 A2994 RMK AO1 SLP157
SPECI CYNL 091447Z AUTO 29011G22KT 9SM SCT012 BKN016 03/01 A2994 RMK AO1 SLP157
SPECI CYNL 091440Z AUTO 29010KT 9SM FEW008 SCT014 BKN076 03/01 A2994 RMK AO1 SLP157
SPECI CYNL 091436Z AUTO 30007KT 9SM FEW008 SCT013 BKN018 03/01 A2994 RMK AO1 SLP157
SPECI CYNL 091432Z AUTO 29010KT 6SM SCT012 BKN017 03/01 A2994 RMK AO1 SLP157
METAR CYNL 091400Z AUTO 29008KT 9SM FEW045 03/01 A2994 RMK AO1 SLP155
SPECI CYNL 091335Z AUTO 29006KT 9SM SCT016 BKN072 02/01 A2993 RMK AO1 SLP155
SPECI CYNL 091321Z AUTO 30007KT 3SM VV015 02/01 A2993 RMK AO1 SLP156
SPECI CYNL 091317Z AUTO 30006KT 2 1/2SM VV016 02/01 A2993 RMK AO1 SLP156
SPECI CYNL 091313Z AUTO 30006KT 3SM VV015 02/01 A2993 RMK AO1 SLP155
SPECI CYNL 091311Z AUTO 28009KT 2 1/2SM VV015 02/01 A2993 RMK AO1 SLP155
METAR CYNL 091300Z AUTO 28009KT 7SM VV015 03/01 A2993 RMK AO1 SLP153
SPECI CYNL 091252Z AUTO 28006KT 9SM BKN016 BKN058 04/00 A2993 RMK AO1 SLP151
SPECI CYNL 091236Z AUTO 30006KT 9SM SCT017 BKN026 BKN058 03/00 A2992 RMK AO1 SLP150
SPECI CYNL 091228Z AUTO 30008KT 9SM SCT017 BKN036 BKN058 03/00 A2992 RMK AO1 SLP150
SPECI CYNL 091218Z AUTO 29007KT 9SM SCT017 BKN023 BKN036 04/M00 A2992 RMK AO1 SLP150
METAR CYNL 091200Z AUTO 29007KT 9SM FEW017 BKN034 OVC052 03/00 A2992 RMK AO1 SLP150
SPECI CYNL 091139Z AUTO 31006KT 9SM SCT014 BKN036 OVC049 03/00 A2992 RMK AO1 SLP149
SPECI CYNL 091138Z AUTO 30007KT 9SM SCT014 BKN025 BKN036 03/00 A2992 RMK AO1 SLP149
SPECI CYNL 091133Z AUTO 30005KT 9SM SCT014 BKN021 BKN028 03/00 A2992 RMK AO1 SLP149
SPECI CYNL 091129Z AUTO 31008KT 9SM BKN014 BKN021 OVC027 03/00 A2992 RMK AO1 SLP149
SPECI CYNL 091126Z AUTO 30007KT 9SM BKN015 OVC021 03/00 A2992 RMK AO1 SLP149
SPECI CYNL 091124Z AUTO 30006KT 9SM BKN014 OVC020 03/01 A2992 RMK AO1 SLP149
SPECI CYNL 091121Z AUTO 31010KT 5SM BKN015 OVC020 03/00 A2992 RMK AO1 SLP149
SPECI CYNL 091120Z AUTO 30008KT 9SM BKN014 OVC020 03/00 A2992 RMK AO1 SLP149
SPECI CYNL 091119Z AUTO 29006KT 9SM BKN015 OVC021 03/01 A2992 RMK AO1 SLP149
SPECI CYNL 091113Z AUTO 31004KT 9SM BKN014 BKN020 OVC054 03/00 A2992 RMK AO1 SLP147
METAR CYNL 091100Z AUTO 31005KT 9SM FEW015 BKN021 OVC054 03/00 A2991 RMK AO1 SLP146
METAR CYNL 091000Z AUTO 32008KT 9SM BKN016 OVC054 03/00 A2990 RMK AO1 SLP143
SPECI CYNL 090954Z AUTO 33009KT 9SM SCT015 BKN022 OVC054 03/00 A2991 RMK AO1 SLP142
SPECI CYNL 090938Z AUTO 31009KT 9SM FEW016 SCT022 OVC054 04/00 A2990 RMK AO1 SLP141
SPECI CYNL 090901Z AUTO 32006KT 9SM SCT017 BKN024 OVC060 04/00 A2990 RMK AO1 SLP141
METAR CYNL 090900Z AUTO 32006KT 9SM SCT017 OVC060 04/00 A2990 RMK AO1 SLP141
SPECI CYNL 090854Z AUTO 31005G16KT 9SM SCT017 BKN049 OVC060 04/00 A2990 RMK AO1 SLP142
SPECI CYNL 090843Z AUTO 31008KT 9SM SCT018 BKN022 BKN047 04/01 A2990 RMK AO1 SLP142
METAR CYNL 090800Z AUTO 31007KT 9SM BKN046 04/01 A2990 RMK AO1 SLP141
METAR CYNL 090700Z AUTO 30006KT 9SM FEW023 SCT045 BKN062 04/01 A2990 RMK AO1 SLP141
METAR CYNL 090600Z AUTO 30006KT 9SM FEW023 BKN043 OVC066 05/01 A2990 RMK AO1 SLP141
METAR CYNL 090500Z AUTO 31009KT 9SM SCT041 OVC072 05/01 A2989 RMK AO1 PRESRR SLP138
METAR CYNL 090400Z AUTO 33006KT 9SM FEW062 OVC076 05/00 A2987 RMK AO1 SLP132
METAR CYNL 090300Z AUTO 31010G17KT 9SM FEW025 BKN066 06/00 A2986 RMK AO1 SLP126
METAR CYNL 090200Z AUTO 32008G19KT 9SM FEW022 OVC064 06/01 A2984 RMK AO1 SLP120
METAR CYNL 090100Z AUTO 32011G19KT 9SM FEW016 SCT020 BKN054 07/02 A2984 RMK AO1 SLP118
SPECI CYNL 090054Z AUTO 31012G18KT 9SM FEW016 SCT020 BKN052 07/02 A2983 RMK AO1 PRESRR SLP117
SPECI CYNL 090036Z AUTO 32014G22KT 9SM FEW015 BKN020 OVC058 07/03 A2983 RMK AO1 PRESRR SLP115
SPECI CYNL 090035Z AUTO 32012G18KT 9SM SCT020 BKN026 BKN058 07/03 A2982 RMK AO1 PRESRR SLP114
SPECI CYNL 090011Z AUTO 31007G19KT 9SM SCT022 BKN031 OVC060 07/03 A2982 RMK AO1 PRESRR SLP112
METAR CYNL 090000Z AUTO 31013G22KT 9SM BKN020 BKN033 06/03 A2982 RMK AO1 PRESRR SLP112
SPECI CYNL 082346Z AUTO 31009G18KT 3SM BKN020 07/03 A2981 RMK AO1 SLP110
SPECI CYNL 082334Z AUTO 30013G24KT 9SM SCT021 BKN035 07/02 A2981 RMK AO1 SLP108
SPECI CYNL 082333Z AUTO 30015G24KT 9SM SCT021 BKN027 07/02 A2981 RMK AO1 SLP107
SPECI CYNL 082329Z AUTO 30015G22KT 9SM BKN022 BKN150 07/02 A2981 RMK AO1 SLP107
SPECI CYNL 082316Z AUTO 30013G23KT 9SM SCT022 BKN040 07/02 A2980 RMK AO1 SLP106
SPECI CYNL 082314Z AUTO 29011G23KT 9SM SCT022 BKN029 07/02 A2980 RMK AO1 SLP105
SPECI CYNL 082309Z AUTO 29012G19KT 9SM BKN022 BKN050 07/03 A2980 RMK AO1 SLP104
METAR CYNL 082300Z AUTO 29008G18KT 9SM SCT022 BKN036 BKN052 07/03 A2980 RMK AO1 SLP103
SPECI CYNL 082240Z AUTO 28009G22KT 9SM FEW017 BKN024 BKN038 07/03 A2979 RMK AO1 SLP100
SPECI CYNL 082237Z AUTO 28012G22KT 9SM SCT019 BKN025 OVC054 07/03 A2978 RMK AO1 SLP100
SPECI CYNL 082235Z AUTO 29015G22KT 9SM FEW014 SCT018 BKN024 07/03 A2978 RMK AO1 SLP099
SPECI CYNL 082228Z AUTO 30011G21KT 9SM FEW014 SCT024 BKN038 07/03 A2978 RMK AO1 SLP098
SPECI CYNL 082227Z AUTO 30012G21KT 9SM FEW014 SCT019 BKN025 07/03 A2978 RMK AO1 SLP098
SPECI CYNL 082216Z AUTO 30015G21KT 3SM FEW014 BKN018 07/04 A2978 RMK AO1 SLP097
SPECI CYNL 082214Z AUTO 31012G21KT 2 1/2SM FEW014 SCT018 BKN024 07/04 A2977 RMK AO1 SLP096
SPECI CYNL 082213Z AUTO 31011G21KT 3SM FEW014 BKN019 07/04 A2977 RMK AO1 SLP096
SPECI CYNL 082204Z AUTO 29009G23KT 9SM SCT019 BKN026 08/03 A2977 RMK AO1 SLP093
SPECI CYNL 082203Z AUTO 30004G23KT 9SM SCT019 BKN038 08/03 A2977 RMK AO1 SLP093
SPECI CYNL 082202Z AUTO 00000KT 9SM SCT019 BKN026 08/03 A2977 RMK AO1 SLP092
SPECI CYNL 082201Z AUTO 00000KT 9SM SCT019 BKN038 08/03 A2977 RMK AO1 SLP092
METAR CYNL 082200Z AUTO 00000KT 9SM SCT019 BKN027 08/03 A2977 RMK AO1 SLP092
SPECI CYNL 082159Z AUTO 33005G23KT 9SM SCT019 BKN027 08/03 A2977 RMK AO1 SLP091
SPECI CYNL 082157Z AUTO 28015G23KT 9SM SCT019 BKN037 08/03 A2976 RMK AO1 SLP090
SPECI CYNL 082148Z AUTO 30013G26KT 9SM SCT019 BKN027 BKN074 08/03 A2976 RMK AO1 SLP088
SPECI CYNL 082120Z AUTO 29019G29KT 9SM BKN021 BKN037 08/03 A2974 RMK AO1 SLP082
SPECI CYNL 082117Z AUTO 28016G28KT 9SM SCT019 BKN025 BKN037 08/03 A2974 RMK AO1 SLP082
METAR CYNL 082100Z AUTO 30011G24KT 9SM FEW015 BKN019 08/03 A2973 RMK AO1 SLP079
SPECI CYNL 081943Z AUTO 29015G26KT 3SM BKN017 OVC023 07/03 A2969 RMK AO1 PRESRR SLP066
SPECI CYNL 081940Z AUTO 31016G26KT 0SM BKN016 OVC022 07/03 A2969 RMK AO1 PRESRR SLP066
SPECI CYNL 081917Z AUTO 31011G24KT 9SM BKN015 OVC023 06/03 A2968 RMK AO1 PRESRR SLP063
SPECI CYNL 081913Z AUTO 30013G25KT 9SM BKN014 OVC023 06/03 A2968 RMK AO1 PRESRR SLP063
METAR CYNL 081900Z AUTO 30015G25KT 9SM SCT011 BKN016 OVC023 06/03 A2967 RMK AO1 PRESRR SLP061
SPECI CYNL 081855Z AUTO 30016G23KT 9SM SCT011 BKN016 OVC021 06/03 A2967 RMK AO1 PRESRR SLP059
SPECI CYNL 081848Z AUTO 31015G25KT 4SM BKN011 OVC022 06/03 A2966 RMK AO1 PRESRR SLP057
SPECI CYNL 081836Z AUTO 30013G24KT 3SM FEW011 BKN017 BKN022 06/04 A2966 RMK AO1 PRESRR SLP055
SPECI CYNL 081835Z AUTO 30014G24KT 2 1/2SM FEW011 BKN017 BKN022 06/04 A2966 RMK AO1 PRESRR SLP055
METAR CYNL 081800Z AUTO 30015G25KT 9SM BKN019 06/03 A2963 RMK AO1 PRESRR SLP047
SPECI CYNL 081728Z AUTO 30012G25KT 3SM FEW012 BKN016 BKN021 05/03 A2961 RMK AO1 PRESRR SLP039
SPECI CYNL 081721Z AUTO 31015G25KT 2SM VV021 05/03 A2960 RMK AO1 PRESRR SLP037
SPECI CYNL 081720Z AUTO 30014G24KT 1 3/4SM VV022 05/03 A2960 RMK AO1 PRESRR SLP037
SPECI CYNL 081718Z AUTO 30017G24KT 2 1/2SM VV022 05/03 A2960 RMK AO1 PRESRR SLP036
SPECI CYNL 081709Z AUTO 29016G26KT 9SM BKN015 OVC020 05/02 A2960 RMK AO1 PRESRR SLP034
METAR CYNL 081700Z AUTO 30015G22KT 6SM BKN014 BKN019 OVC023 05/03 A2959 RMK AO1 PRESRR SLP031
SPECI CYNL 081658Z AUTO 30013G22KT 9SM BKN014 BKN018 OVC023 05/03 A2959 RMK AO1 PRESRR SLP030
SPECI CYNL 081657Z AUTO 30013G22KT 9SM BKN015 OVC020 05/03 A2959 RMK AO1 PRESRR SLP030
SPECI CYNL 081656Z AUTO 29015G25KT 8SM BKN014 BKN019 OVC029 05/03 A2959 RMK AO1 PRESRR SLP030
SPECI CYNL 081652Z AUTO 30015G25KT 6SM BKN015 OVC029 05/03 A2958 RMK AO1 PRESRR SLP029
SPECI CYNL 081650Z AUTO 30012G25KT 9SM BKN014 BKN020 OVC029 06/03 A2958 RMK AO1 PRESRR SLP028
SPECI CYNL 081649Z AUTO 29013G25KT 9SM BKN015 OVC028 06/03 A2958 RMK AO1 PRESRR SLP028
SPECI CYNL 081648Z AUTO 30015G25KT 9SM BKN014 BKN019 OVC028 06/03 A2958 RMK AO1 PRESRR SLP028
SPECI CYNL 081645Z AUTO 30013G26KT 9SM BKN015 OVC025 06/03 A2958 RMK AO1 PRESRR SLP027
SPECI CYNL 081627Z AUTO 31016G29KT 4SM FEW008 BKN012 BKN016 05/03 A2957 RMK AO1 PRESRR SLP024
SPECI CYNL 081625Z AUTO 30015G29KT 2SM FEW008 SCT012 BKN016 05/04 A2957 RMK AO1 PRESRR SLP024
SPECI CYNL 081624Z AUTO 30016G29KT 2 1/2SM FEW008 BKN012 BKN017 05/03 A2957 RMK AO1 PRESRR SLP024
SPECI CYNL 081621Z AUTO 30013G29KT 9SM FEW008 SCT011 BKN015 05/03 A2957 RMK AO1 PRESRR SLP024
SPECI CYNL 081620Z AUTO 30015G29KT 9SM FEW008 BKN011 OVC025 05/03 A2957 RMK AO1 PRESRR SLP024
SPECI CYNL 081619Z AUTO 30018G29KT 9SM FEW008 SCT011 BKN015 05/03 A2957 RMK AO1 PRESRR SLP023
SPECI CYNL 081614Z AUTO 29014G27KT 4SM SCT008 BKN011 OVC024 05/04 A2956 RMK AO1 PRESRR SLP021
SPECI CYNL 081612Z AUTO 30018G27KT 4SM SCT009 BKN015 OVC024 05/04 A2956 RMK AO1 PRESRR SLP020
SPECI CYNL 081611Z AUTO 29018G27KT 3SM SCT009 BKN013 OVC024 05/04 A2956 RMK AO1 PRESRR SLP020
SPECI CYNL 081610Z AUTO 29016G27KT 2 1/2SM SCT009 BKN014 OVC024 05/04 A2956 RMK AO1 PRESRR SLP019
SPECI CYNL 081603Z AUTO 30019G27KT 3SM FEW009 BKN013 OVC024 05/04 A2955 RMK AO1 PRESRR SLP018
SPECI CYNL 081602Z AUTO 31018G27KT 2SM FEW009 BKN013 OVC024 05/04 A2955 RMK AO1 PRESRR SLP018
METAR CYNL 081600Z AUTO 31014G24KT 1 1/2SM FEW009 BKN013 OVC024 06/04 A2955 RMK AO1 PRESRR SLP017
SPECI CYNL 081559Z AUTO 31014G24KT 1 3/4SM FEW009 BKN012 BKN024 06/04 A2955 RMK AO1 PRESRR SLP017
SPECI CYNL 081558Z AUTO 31017G24KT 2 1/2SM FEW009 BKN012 BKN024 06/04 A2955 RMK AO1 PRESRR SLP017
SPECI CYNL 081544Z AUTO 29015G26KT 3SM FEW009 BKN013 OVC029 05/04 A2954 RMK AO1 PRESRR SLP016
SPECI CYNL 081537Z AUTO 30014G23KT 2SM BKN012 BKN030 06/04 A2954 RMK AO1 PRESRR SLP014
SPECI CYNL 081519Z AUTO 32012G23KT 9SM FEW009 BKN011 BKN030 06/04 A2953 RMK AO1 PRESRR SLP011
SPECI CYNL 081516Z AUTO 31012G25KT 9SM FEW009 SCT011 BKN016 06/04 A2953 RMK AO1 PRESRR SLP011
SPECI CYNL 081508Z AUTO 31013G25KT 3SM SCT008 BKN011 BKN017 05/04 A2953 RMK AO1 PRESRR SLP011
SPECI CYNL 081507Z AUTO 31012G25KT 2SM SCT008 BKN011 BKN013 05/04 A2953 RMK AO1 PRESRR SLP011
SPECI CYNL 081506Z AUTO 30014G25KT 2 1/2SM BKN010 OVC021 05/04 A2953 RMK AO1 PRESRR SLP010
SPECI CYNL 081502Z AUTO 31015G24KT 3SM SCT008 BKN011 BKN013 05/04 A2952 RMK AO1 PRESRR SLP009
METAR CYNL 081500Z AUTO 31012G24KT 4SM BKN009 BKN015 OVC021 05/04 A2952 RMK AO1 PRESRR SLP008
SPECI CYNL 081458Z AUTO 31009G24KT 4SM BKN009 BKN015 OVC021 06/04 A2952 RMK AO1 PRESRR SLP008
SPECI CYNL 081449Z AUTO 31014G22KT 9SM SCT008 BKN013 05/04 A2952 RMK AO1 PRESRR SLP006
SPECI CYNL 081423Z AUTO 32009G20KT 9SM BKN009 BKN012 OVC017 05/04 A2951 RMK AO1 PRESRR SLP004
METAR CYNL 081400Z AUTO 32013G23KT 9SM BKN010 BKN026 05/04 A2949 RMK AO1 PRESRR SLP996
SPECI CYNL 081343Z AUTO 32010G23KT 9SM FEW008 SCT010 BKN024 05/04 A2947 RMK AO1 PRESRR SLP992
SPECI CYNL 081342Z AUTO 32011G23KT 9SM FEW008 SCT010 BKN026 05/04 A2947 RMK AO1 PRESRR SLP992
SPECI CYNL 081341Z AUTO 32012G23KT 9SM FEW008 SCT010 BKN021 05/03 A2947 RMK AO1 PRESRR SLP992
SPECI CYNL 081339Z AUTO 32010G23KT 9SM FEW008 SCT010 BKN025 05/04 A2947 RMK AO1 PRESRR SLP992
SPECI CYNL 081329Z AUTO 32013G22KT 9SM SCT008 BKN011 BKN015 05/04 A2947 RMK AO1 PRESRR SLP990
SPECI CYNL 081315Z AUTO 32012G27KT 9SM FEW006 BKN009 BKN021 05/04 A2947 RMK AO1 PRESRR SLP989
SPECI CYNL 081312Z AUTO 32011G27KT 9SM FEW006 SCT008 BKN010 05/04 A2947 RMK AO1 PRESRR SLP989
METAR CYNL 081300Z AUTO 32012G25KT 9SM SCT006 BKN008 BKN010 05/04 A2947 RMK AO1 PRESRR SLP989
SPECI CYNL 081249Z AUTO 32011G22KT 3SM BKN006 BKN013 OVC018 05/05 A2946 RMK AO1 SLP987
SPECI CYNL 081246Z AUTO 32013G22KT 1 3/4SM BKN006 BKN013 OVC018 05/05 A2946 RMK AO1 SLP987
SPECI CYNL 081242Z AUTO 31010G20KT 2SM SCT005 BKN008 BKN010 05/05 A2946 RMK AO1 SLP987
SPECI CYNL 081240Z AUTO 32010G20KT 1 1/2SM BKN006 OVC011 05/05 A2946 RMK AO1 SLP987
SPECI CYNL 081233Z AUTO 32010G23KT 1 1/4SM BKN007 BKN011 OVC016 05/05 A2946 RMK AO1 SLP985
SPECI CYNL 081231Z AUTO 32011G23KT 1 3/4SM BKN007 BKN011 OVC016 05/05 A2946 RMK AO1 SLP985
SPECI CYNL 081229Z AUTO 32013G23KT 2 1/2SM BKN007 BKN012 OVC016 05/05 A2945 RMK AO1 SLP985
METAR CYNL 081200Z AUTO 32012G19KT 6SM BKN007 OVC013 05/05 A2944 RMK AO1 SLP980
SPECI CYNL 081141Z AUTO 33011G19KT 8SM BKN007 BKN022 OVC036 06/05 A2944 RMK AO1 SLP978
SPECI CYNL 081138Z AUTO 33009G19KT 5SM SCT007 BKN014 BKN022 06/05 A2944 RMK AO1 SLP978
SPECI CYNL 081128Z AUTO 34011G19KT 3SM FEW007 SCT013 BKN021 06/06 A2943 RMK AO1 SLP974
SPECI CYNL 081127Z AUTO 34011G19KT 3SM VV025 06/06 A2942 RMK AO1 SLP974
SPECI CYNL 081125Z AUTO 34013G21KT 2SM VV029 06/06 A2942 RMK AO1 SLP973
SPECI CYNL 081124Z AUTO 35013G21KT 2SM VV031 06/06 A2942 RMK AO1 SLP972
SPECI CYNL 081120Z AUTO 35012G21KT 1 1/2SM VV032 06/06 A2942 RMK AO1 SLP972
SPECI CYNL 081119Z AUTO 34013G21KT 1 1/4SM VV032 06/06 A2942 RMK AO1 SLP972
SPECI CYNL 081117Z AUTO 35012G22KT 1SM VV027 06/06 A2942 RMK AO1 SLP972
SPECI CYNL 081111Z AUTO 35013G22KT 3/4SM VV016 06/06 A2942 RMK AO1 SLP973
SPECI CYNL 081109Z AUTO 34016G22KT 1SM VV015 06/06 A2942 RMK AO1 SLP973
SPECI CYNL 081107Z AUTO 34014G21KT 1SM VV014 06/06 A2942 RMK AO1 SLP973
SPECI CYNL 081105Z AUTO 35015G21KT 3/4SM VV012 06/06 A2943 RMK AO1 SLP974
SPECI CYNL 081104Z AUTO 34013G18KT 5/8SM VV012 06/06 A2943 RMK AO1 SLP974
METAR CYNL 081100Z AUTO 34011KT 5/8SM BKN005 OVC011 06/06 A2943 RMK AO1 SLP976
SPECI CYNL 081058Z AUTO 33010KT 3/4SM BKN005 OVC011 06/06 A2944 RMK AO1 SLP978
SPECI CYNL 081050Z AUTO 32009G19KT 1 1/4SM BKN005 OVC012 06/06 A2944 RMK AO1 SLP978
SPECI CYNL 081041Z AUTO 34013G19KT 1 1/2SM BKN005 OVC011 06/06 A2943 RMK AO1 SLP975
SPECI CYNL 081036Z AUTO 34010G19KT 1 1/4SM OVC005 06/06 A2943 RMK AO1 SLP975
SPECI CYNL 081023Z AUTO 35010G17KT 1SM OVC004 07/07 A2942 RMK AO1 SLP972
SPECI CYNL 081021Z AUTO 35011G17KT 3/4SM OVC004 07/07 A2942 RMK AO1 SLP971
SPECI CYNL 081015Z AUTO 35011G17KT 1SM BKN004 OVC005 07/07 A2942 RMK AO1 SLP970
SPECI CYNL 081014Z AUTO 34009G17KT 3/4SM BKN004 OVC005 07/07 A2942 RMK AO1 SLP970
METAR CYNL 081000Z AUTO 35011G16KT 1SM OVC004 07/07 A2942 RMK AO1 SLP971
SPECI CYNL 080953Z AUTO 35011G18KT 1SM OVC004 07/07 A2942 RMK AO1 SLP972
SPECI CYNL 080948Z AUTO 35010G20KT 1 1/4SM OVC005 07/07 A2942 RMK AO1 SLP971
SPECI CYNL 080935Z AUTO 00011G17KT 1 3/4SM OVC005 07/07 A2943 RMK AO1 SLP972
SPECI CYNL 080930Z AUTO 00012G17KT 2 1/2SM OVC006 07/07 A2942 RMK AO1 SLP972
METAR CYNL 080900Z AUTO 00012G19KT 3SM BKN005 OVC009 08/08 A2943 RMK AO1 SLP974
SPECI CYNL 080858Z AUTO 00012G18KT 3SM BKN005 OVC010 08/08 A2943 RMK AO1 SLP973
SPECI CYNL 080857Z AUTO 00012G18KT 2 1/2SM BKN005 OVC009 08/08 A2943 RMK AO1 PRESFR SLP973
SPECI CYNL 080854Z AUTO 00012G18KT 2SM BKN004 OVC009 08/08 A2943 RMK AO1 PRESFR SLP973
SPECI CYNL 080849Z AUTO 00011G19KT 1 1/2SM BKN004 OVC008 08/08 A2943 RMK AO1 PRESFR SLP972
SPECI CYNL 080848Z AUTO 00011G19KT 1 1/4SM VV007 08/08 A2942 RMK AO1 PRESFR SLP971
SPECI CYNL 080846Z AUTO 01012G19KT 1SM BKN004 OVC008 08/08 A2942 RMK AO1 PRESFR SLP970
SPECI CYNL 080845Z AUTO 00012G19KT 3/4SM BKN004 OVC008 08/08 A2942 RMK AO1 PRESFR SLP970
SPECI CYNL 080843Z AUTO 00012G19KT 5/8SM BKN004 OVC008 08/08 A2942 RMK AO1 PRESFR SLP970
SPECI CYNL 080837Z AUTO 01012G19KT 5/8SM BKN005 OVC008 08/08 A2943 RMK AO1 PRESFR SLP973
SPECI CYNL 080835Z AUTO 01015KT 3/4SM OVC005 08/08 A2943 RMK AO1 PRESFR SLP974
SPECI CYNL 080832Z AUTO 01013G18KT 1 1/4SM OVC005 08/08 A2944 RMK AO1 PRESFR SLP976
SPECI CYNL 080829Z AUTO 02012KT 1 3/4SM OVC005 08/08 A2945 RMK AO1 PRESFR SLP979
SPECI CYNL 080822Z AUTO 00010G17KT 2SM BKN005 OVC007 08/08 A2945 RMK AO1 PRESFR SLP978
SPECI CYNL 080810Z AUTO 01010G18KT 1 3/4SM BKN005 OVC011 08/08 A2944 RMK AO1 PRESFR SLP976
SPECI CYNL 080801Z AUTO 00011G17KT 2 1/2SM BKN006 OVC011 08/08 A2945 RMK AO1 PRESFR SLP978
METAR CYNL 080800Z AUTO 01010G17KT 3SM BKN006 OVC011 08/08 A2944 RMK AO1 PRESFR SLP978
SPECI CYNL 080759Z AUTO 01010G17KT 3SM BKN006 OVC011 08/08 A2944 RMK AO1 PRESFR SLP977
SPECI CYNL 080749Z AUTO 01014G20KT 2SM BKN005 OVC010 08/08 A2945 RMK AO1 PRESFR SLP979
SPECI CYNL 080748Z AUTO 01013G20KT 1 3/4SM BKN005 OVC010 08/08 A2945 RMK AO1 PRESFR SLP978
SPECI CYNL 080729Z AUTO 00011G17KT 2SM BKN005 OVC012 08/08 A2947 RMK AO1 PRESFR SLP984
SPECI CYNL 080726Z AUTO 00011G17KT 1 1/2SM BKN005 BKN007 OVC011 08/08 A2947 RMK AO1 PRESFR SLP985
SPECI CYNL 080723Z AUTO 01013KT 1 1/4SM BKN005 BKN007 OVC011 09/08 A2947 RMK AO1 PRESFR SLP985
SPECI CYNL 080716Z AUTO 00009G16KT 1 3/4SM BKN005 OVC012 09/09 A2948 RMK AO1 PRESFR SLP988
SPECI CYNL 080714Z AUTO 00009G16KT 2SM BKN005 OVC011 09/09 A2948 RMK AO1 PRESFR SLP988
SPECI CYNL 080711Z AUTO 01010G16KT 1 3/4SM BKN005 OVC011 09/09 A2948 RMK AO1 PRESFR SLP988
SPECI CYNL 080704Z AUTO 01011G17KT 2SM BKN006 BKN012 OVC016 09/09 A2948 RMK AO1 PRESFR SLP989
METAR CYNL 080700Z AUTO 01011G22KT 1 1/2SM BKN006 OVC016 09/09 A2948 RMK AO1 PRESFR SLP988
SPECI CYNL 080656Z AUTO 01012G22KT 1 1/2SM SCT006 BKN012 OVC016 09/09 A2948 RMK AO1 PRESFR SLP989
SPECI CYNL 080655Z AUTO 01013G22KT 1 1/4SM BKN006 OVC016 09/09 A2948 RMK AO1 PRESFR SLP990
SPECI CYNL 080650Z AUTO 01013G18KT 1 3/4SM BKN006 OVC016 09/09 A2949 RMK AO1 PRESFR SLP991
SPECI CYNL 080649Z AUTO 02013KT 2 1/2SM BKN006 OVC016 09/09 A2949 RMK AO1 PRESFR SLP991
SPECI CYNL 080646Z AUTO 02013KT 3SM BKN005 OVC015 09/09 A2949 RMK AO1 PRESFR SLP993
SPECI CYNL 080644Z AUTO 01013KT 2 1/2SM SCT005 BKN010 OVC015 09/09 A2949 RMK AO1 PRESFR SLP993
SPECI CYNL 080643Z AUTO 01014KT 2SM SCT005 OVC015 09/09 A2949 RMK AO1 PRESFR SLP993
SPECI CYNL 080639Z AUTO 01011G17KT 2SM SCT005 BKN010 OVC016 09/09 A2950 RMK AO1 PRESFR SLP994
SPECI CYNL 080637Z AUTO 01013G19KT 1 3/4SM SCT006 BKN010 OVC015 09/09 A2950 RMK AO1 PRESFR SLP995
SPECI CYNL 080631Z AUTO 01012G19KT 1 3/4SM BKN006 OVC014 09/09 A2950 RMK AO1 PRESFR SLP996
SPECI CYNL 080630Z AUTO 01012G19KT 2SM BKN006 OVC014 09/09 A2950 RMK AO1 PRESFR SLP996
SPECI CYNL 080622Z AUTO 01012G18KT 1 1/2SM BKN005 OVC014 09/09 A2951 RMK AO1 PRESFR SLP000
SPECI CYNL 080616Z AUTO 01014KT 1 1/4SM BKN006 BKN014 OVC018 09/09 A2952 RMK AO1 PRESFR SLP001
SPECI CYNL 080614Z AUTO 01010G17KT 1 3/4SM BKN006 BKN014 OVC018 09/09 A2952 RMK AO1 PRESFR SLP001
SPECI CYNL 080611Z AUTO 01012KT 2 1/2SM BKN006 OVC018 09/09 A2952 RMK AO1 PRESFR SLP002
SPECI CYNL 080609Z AUTO 01011KT 3SM BKN006 OVC018 09/09 A2952 RMK AO1 PRESFR SLP002
SPECI CYNL 080607Z AUTO 00011KT 2SM BKN006 OVC017 09/09 A2952 RMK AO1 PRESFR SLP003
SPECI CYNL 080606Z AUTO 00010G15KT 1 1/2SM SCT006 BKN010 OVC018 09/09 A2952 RMK AO1 PRESFR SLP004
SPECI CYNL 080602Z AUTO 00009KT 1 1/4SM SCT005 BKN010 OVC018 09/09 A2953 RMK AO1 PRESFR SLP004
METAR CYNL 080600Z AUTO 00008KT 1 3/4SM SCT005 BKN010 OVC018 09/09 A2953 RMK AO1 PRESFR SLP004
SPECI CYNL 080557Z AUTO 01009G15KT 2 1/2SM SCT005 BKN014 OVC018 09/09 A2952 RMK AO1 PRESFR SLP003
SPECI CYNL 080556Z AUTO 01009G15KT 2 1/2SM SCT005 OVC018 09/09 A2952 RMK AO1 PRESFR SLP003
SPECI CYNL 080555Z AUTO 01010G15KT 3SM SCT005 BKN010 OVC018 09/09 A2952 RMK AO1 PRESFR SLP003
SPECI CYNL 080554Z AUTO 01010G17KT 2 1/2SM SCT005 BKN010 OVC018 09/09 A2952 RMK AO1 PRESFR SLP003
SPECI CYNL 080552Z AUTO 01010G17KT 1 1/2SM VV018 09/09 A2952 RMK AO1 PRESFR SLP004
SPECI CYNL 080550Z AUTO 01011G17KT 1SM VV017 09/09 A2953 RMK AO1 PRESFR SLP004
SPECI CYNL 080543Z AUTO 01010KT 1SM BKN005 BKN011 OVC017 09/09 A2953 RMK AO1 PRESFR SLP005
SPECI CYNL 080542Z AUTO 01009KT 1SM VV011 09/09 A2953 RMK AO1 PRESFR SLP005
SPECI CYNL 080540Z AUTO 02008KT 1SM BKN005 BKN009 OVC010 09/09 A2953 RMK AO1 PRESFR SLP005
SPECI CYNL 080536Z AUTO 02010KT 3/4SM BKN005 OVC009 09/09 A2953 RMK AO1 PRESFR SLP006
SPECI CYNL 080533Z AUTO 02010KT 1 1/4SM BKN005 OVC009 09/09 A2954 RMK AO1 PRESFR SLP007
SPECI CYNL 080532Z AUTO 02011KT 1 3/4SM BKN005 OVC009 09/09 A2954 RMK AO1 PRESFR SLP007
SPECI CYNL 080527Z AUTO 02008KT 2SM BKN005 OVC009 09/09 A2954 RMK AO1 PRESFR SLP009
SPECI CYNL 080525Z AUTO 01008KT 1 3/4SM BKN005 OVC009 09/09 A2954 RMK AO1 PRESFR SLP009
SPECI CYNL 080523Z AUTO 02008KT 2 1/2SM BKN005 BKN009 OVC011 09/09 A2954 RMK AO1 PRESFR SLP009
SPECI CYNL 080519Z AUTO 00009KT 3SM BKN005 BKN009 OVC011 10/09 A2954 RMK AO1 PRESFR SLP010
SPECI CYNL 080518Z AUTO 01008KT 2 1/2SM BKN005 BKN009 OVC011 10/09 A2954 RMK AO1 PRESFR SLP010
SPECI CYNL 080516Z AUTO 01009KT 1 3/4SM BKN005 BKN009 OVC011 10/09 A2954 RMK AO1 PRESFR SLP010
SPECI CYNL 080515Z AUTO 01010KT 2 1/2SM BKN005 BKN009 OVC011 10/10 A2954 RMK AO1 PRESFR SLP010
SPECI CYNL 080510Z AUTO 01008KT 3SM BKN005 BKN008 OVC017 10/10 A2954 RMK AO1 PRESFR SLP010
SPECI CYNL 080504Z AUTO 02011KT 2SM BKN005 BKN008 OVC011 10/10 A2954 RMK AO1 PRESFR SLP010
METAR CYNL 080500Z AUTO 02010G16KT 1 1/2SM BKN005 BKN008 OVC011 10/10 A2955 RMK AO1 PRESFR SLP011
SPECI CYNL 080458Z AUTO 03010G17KT 1 1/4SM BKN005 BKN008 OVC011 10/10 A2955 RMK AO1 PRESFR SLP012
SPECI CYNL 080456Z AUTO 02010G17KT 1 3/4SM BKN005 BKN008 OVC011 10/10 A2955 RMK AO1 PRESFR SLP012
SPECI CYNL 080455Z AUTO 02010G17KT 2SM BKN005 OVC011 10/10 A2955 RMK AO1 PRESFR SLP011
SPECI CYNL 080454Z AUTO 02011G17KT 1 3/4SM BKN005 OVC011 10/10 A2955 RMK AO1 PRESFR SLP011
SPECI CYNL 080452Z AUTO 02013KT 2 1/2SM BKN005 OVC011 10/10 A2955 RMK AO1 PRESFR SLP011
SPECI CYNL 080449Z AUTO 02013KT 3SM BKN005 BKN006 OVC010 10/10 A2955 RMK AO1 PRESFR SLP012
SPECI CYNL 080443Z AUTO 02009G15KT 2 1/2SM OVC005 10/10 A2955 RMK AO1 PRESFR SLP014
SPECI CYNL 080442Z AUTO 02009G15KT 2 1/2SM BKN004 BKN006 OVC009 10/10 A2955 RMK AO1 PRESFR SLP014
SPECI CYNL 080441Z AUTO 02010G15KT 2SM BKN005 BKN006 OVC009 10/10 A2955 RMK AO1 PRESFR SLP014
SPECI CYNL 080438Z AUTO 02010G15KT 1 1/2SM OVC005 10/10 A2955 RMK AO1 PRESFR SLP014
SPECI CYNL 080435Z AUTO 02011KT 1 1/2SM BKN004 OVC007 10/10 A2955 RMK AO1 PRESFR SLP014
SPECI CYNL 080432Z AUTO 02012KT 1 1/4SM BKN005 OVC009 10/10 A2955 RMK AO1 PRESFR SLP014
SPECI CYNL 080425Z AUTO 02010G15KT 1 3/4SM BKN005 OVC009 10/10 A2956 RMK AO1 PRESFR SLP016
SPECI CYNL 080424Z AUTO 02010G15KT 1 3/4SM BKN004 BKN009 OVC010 10/09 A2956 RMK AO1 PRESFR SLP016
SPECI CYNL 080422Z AUTO 02010G15KT 1 1/2SM SCT004 BKN005 OVC010 10/09 A2956 RMK AO1 PRESFR SLP017
SPECI CYNL 080421Z AUTO 02009G15KT 1 1/2SM BKN004 OVC010 09/09 A2956 RMK AO1 PRESFR SLP017
SPECI CYNL 080420Z AUTO 02009G15KT 1 1/2SM SCT004 BKN005 OVC010 09/09 A2956 RMK AO1 PRESFR SLP018
SPECI CYNL 080417Z AUTO 02011KT 1SM SCT004 BKN005 BKN008 09/09 A2957 RMK AO1 PRESFR SLP019
SPECI CYNL 080412Z AUTO 02009KT 1 1/4SM BKN004 OVC010 09/09 A2957 RMK AO1 PRESFR SLP020
SPECI CYNL 080407Z AUTO 02010KT 1 1/2SM BKN004 OVC010 09/09 A2957 RMK AO1 PRESFR SLP021
SPECI CYNL 080402Z AUTO 01010KT 1 1/4SM BKN004 BKN009 OVC010 09/09 A2958 RMK AO1 PRESFR SLP022
SPECI CYNL 080401Z AUTO 01010KT 1 1/2SM BKN004 BKN009 OVC010 09/09 A2958 RMK AO1 PRESFR SLP022
METAR CYNL 080400Z AUTO 01010KT 1 1/4SM BKN004 BKN009 OVC010 09/09 A2958 RMK AO1 PRESFR SLP022
SPECI CYNL 080358Z AUTO 02009KT 1 1/4SM BKN004 OVC011 09/09 A2958 RMK AO1 PRESFR SLP022
SPECI CYNL 080356Z AUTO 02010KT 1 3/4SM OVC004 09/09 A2958 RMK AO1 PRESFR SLP023
SPECI CYNL 080355Z AUTO 02010KT 2SM OVC004 09/09 A2958 RMK AO1 PRESFR SLP023
SPECI CYNL 080350Z AUTO 01007KT 1 3/4SM OVC005 09/09 A2959 RMK AO1 PRESFR SLP026
SPECI CYNL 080342Z AUTO 01009KT 2 1/2SM BKN005 OVC009 09/09 A2959 RMK AO1 PRESFR SLP025
SPECI CYNL 080340Z AUTO 02009KT 3SM BKN005 OVC009 09/09 A2959 RMK AO1 PRESFR SLP025
SPECI CYNL 080335Z AUTO 02009KT 2 1/2SM BKN005 OVC007 09/09 A2959 RMK AO1 PRESFR SLP026
SPECI CYNL 080328Z AUTO 02011KT 3SM BKN005 OVC011 09/09 A2959 RMK AO1 PRESFR SLP027
SPECI CYNL 080325Z AUTO 02011KT 2 1/2SM BKN005 OVC011 09/09 A2959 RMK AO1 PRESFR SLP027
SPECI CYNL 080309Z AUTO 03012G20KT 3SM BKN005 BKN010 OVC013 09/09 A2959 RMK AO1 PRESFR SLP026
METAR CYNL 080300Z AUTO 02012KT 2SM BKN005 OVC015 09/09 A2960 RMK AO1 PRESFR SLP031
SPECI CYNL 080256Z AUTO 02013KT 2 1/2SM BKN005 OVC015 09/09 A2961 RMK AO1 PRESFR SLP034
SPECI CYNL 080255Z AUTO 02013KT 2 1/2SM VV010 09/09 A2961 RMK AO1 PRESFR SLP035
SPECI CYNL 080252Z AUTO 02010G17KT 2SM BKN005 BKN013 OVC015 09/09 A2962 RMK AO1 PRESFR SLP036
SPECI CYNL 080249Z AUTO 02012KT 1 3/4SM BKN005 BKN009 OVC015 09/09 A2962 RMK AO1 PRESFR SLP036
SPECI CYNL 080246Z AUTO 02013KT 2SM BKN005 BKN009 OVC015 09/09 A2962 RMK AO1 PRESFR SLP038
SPECI CYNL 080240Z AUTO 02010KT 1 3/4SM BKN005 OVC015 09/09 A2963 RMK AO1 PRESFR SLP040
SPECI CYNL 080232Z AUTO 02011KT 2 1/2SM BKN005 OVC015 09/09 A2963 RMK AO1 PRESFR SLP040
SPECI CYNL 080230Z AUTO 01011G16KT 3SM BKN005 OVC015 09/09 A2963 RMK AO1 PRESFR SLP040
SPECI CYNL 080225Z AUTO 01009G17KT 2SM OVC005 09/09 A2963 RMK AO1 PRESFR SLP042
SPECI CYNL 080222Z AUTO 02009G17KT 1 3/4SM OVC005 09/09 A2964 RMK AO1 PRESFR SLP043
METAR CYNL 080200Z AUTO 02011KT 2SM BKN006 OVC008 09/09 A2965 RMK AO1 PRESFR SLP046
SPECI CYNL 080156Z AUTO 01011G16KT 2SM FEW004 BKN006 OVC008 09/09 A2965 RMK AO1 PRESFR SLP047
SPECI CYNL 080154Z AUTO 02010G19KT 1 1/2SM BKN006 OVC008 09/09 A2965 RMK AO1 PRESFR SLP047
SPECI CYNL 080151Z AUTO 02010G19KT 1 1/4SM BKN006 OVC014 09/09 A2965 RMK AO1 PRESFR SLP048
SPECI CYNL 080149Z AUTO 02011G19KT 2 1/2SM BKN006 OVC014 09/09 A2965 RMK AO1 PRESFR SLP048
SPECI CYNL 080137Z AUTO 01011G17KT 3SM BKN005 OVC014 09/09 A2965 RMK AO1 PRESFR SLP049
SPECI CYNL 080130Z AUTO 01009KT 2 1/2SM BKN005 OVC016 09/09 A2966 RMK AO1 PRESFR SLP051
SPECI CYNL 080118Z AUTO 01010G16KT 3SM BKN005 OVC015 09/09 A2966 RMK AO1 PRESFR SLP052
SPECI CYNL 080116Z AUTO 01009G16KT 2SM BKN005 OVC016 09/09 A2966 RMK AO1 PRESFR SLP052
SPECI CYNL 080115Z AUTO 01011G16KT 1 1/2SM BKN005 OVC015 09/09 A2966 RMK AO1 PRESFR SLP052
SPECI CYNL 080112Z AUTO 01012KT 1 1/4SM BKN005 OVC016 09/09 A2966 RMK AO1 PRESFR SLP051
SPECI CYNL 080110Z AUTO 02012KT 1 3/4SM BKN005 OVC010 09/09 A2966 RMK AO1 PRESFR SLP051
SPECI CYNL 080105Z AUTO 01009G15KT 2SM BKN005 OVC010 09/09 A2967 RMK AO1 PRESFR SLP053
SPECI CYNL 080102Z AUTO 01011KT 1 3/4SM OVC005 09/09 A2967 RMK AO1 PRESFR SLP054
METAR CYNL 080100Z AUTO 01011KT 2SM OVC005 09/09 A2967 RMK AO1 PRESFR SLP055
SPECI CYNL 080057Z AUTO 01011KT 2 1/2SM OVC005 09/09 A2967 RMK AO1 SLP056
SPECI CYNL 080049Z AUTO 01010G19KT 3SM OVC005 09/09 A2967 RMK AO1 SLP055
SPECI CYNL 080047Z AUTO 01011G19KT 2SM OVC005 09/09 A2966 RMK AO1 SLP054
SPECI CYNL 080044Z AUTO 02014G19KT 1 3/4SM OVC005 09/09 A2966 RMK AO1 SLP053
SPECI CYNL 080041Z AUTO 01011G18KT 2 1/2SM OVC005 09/09 A2966 RMK AO1 SLP054
METAR CYNL 080000Z AUTO 01010G16KT 6SM OVC005 09/09 A2969 RMK AO1 SLP063
METAR CYNL 072300Z AUTO 02012KT 6SM OVC006 09/09 A2971 RMK AO1 SLP069
SPECI CYNL 072226Z AUTO 02012G17KT 7SM BKN007 BKN010 OVC014 10/09 A2972 RMK AO1 SLP073
SPECI CYNL 072225Z AUTO 01011G17KT 6SM SCT007 BKN010 OVC015 10/09 A2972 RMK AO1 SLP073
SPECI CYNL 072209Z AUTO 02012KT 5SM SCT007 BKN009 BKN011 10/09 A2973 RMK AO1 SLP076
METAR CYNL 072200Z AUTO 01012KT 6SM SCT008 BKN011 BKN015 10/09 A2973 RMK AO1 SLP076
SPECI CYNL 072148Z AUTO 02010KT 6SM SCT007 BKN011 OVC024 10/09 A2973 RMK AO1 SLP076
SPECI CYNL 072128Z AUTO 03010G19KT 5SM SCT008 BKN017 OVC027 10/09 A2973 RMK AO1 SLP078
METAR CYNL 072100Z AUTO 03013G19KT 7SM FEW009 SCT012 BKN017 10/08 A2974 RMK AO1 SLP079
SPECI CYNL 072058Z AUTO 03013G19KT 7SM SCT009 BKN016 BKN021 10/08 A2974 RMK AO1 SLP079
SPECI CYNL 072047Z AUTO 03012G17KT 7SM SCT009 BKN012 BKN017 10/09 A2974 RMK AO1 SLP079
SPECI CYNL 072044Z AUTO 03010G16KT 8SM BKN009 BKN017 OVC038 10/09 A2974 RMK AO1 SLP079
SPECI CYNL 072032Z AUTO 03012G17KT 6SM SCT009 BKN012 BKN017 10/09 A2974 RMK AO1 SLP080
SPECI CYNL 072030Z AUTO 02014KT 6SM BKN009 BKN012 OVC017 10/09 A2974 RMK AO1 SLP080
SPECI CYNL 072027Z AUTO 02011G17KT 6SM SCT009 BKN010 BKN012 10/09 A2974 RMK AO1 SLP080
SPECI CYNL 072024Z AUTO 01011G17KT 7SM BKN009 OVC012 10/09 A2974 RMK AO1 SLP081
METAR CYNL 072000Z AUTO 03011G16KT 9SM FEW009 BKN012 BKN016 11/09 A2975 RMK AO1 SLP082
SPECI CYNL 071959Z AUTO 03012KT 9SM FEW009 BKN012 BKN016 11/09 A2975 RMK AO1 SLP082
SPECI CYNL 071958Z AUTO 02011G16KT 8SM BKN010 BKN019 OVC025 11/09 A2975 RMK AO1 SLP082
SPECI CYNL 071942Z AUTO 02011KT 7SM SCT009 BKN016 OVC023 11/09 A2976 RMK AO1 SLP084
SPECI CYNL 071941Z AUTO 03010KT 6SM SCT009 BKN014 OVC023 11/09 A2976 RMK AO1 SLP085
SPECI CYNL 071939Z AUTO 02010KT 6SM SCT009 BKN017 OVC023 11/09 A2976 RMK AO1 SLP085
SPECI CYNL 071938Z AUTO 02011KT 6SM SCT009 BKN012 BKN017 11/09 A2976 RMK AO1 SLP085
SPECI CYNL 071934Z AUTO 03009KT 7SM FEW009 SCT012 BKN015 11/09 A2976 RMK AO1 SLP085
SPECI CYNL 071930Z AUTO 02011KT 7SM SCT011 BKN015 BKN019 11/09 A2976 RMK AO1 SLP085
SPECI CYNL 071927Z AUTO 03010KT 8SM FEW010 BKN014 OVC022 11/09 A2976 RMK AO1 SLP085
SPECI CYNL 071923Z AUTO 03010KT 7SM FEW010 SCT012 BKN017 11/09 A2976 RMK AO1 SLP086
METAR CYNL 071900Z AUTO 03008KT 9SM OVC010 10/08 A2977 RMK AO1 SLP089
METAR CYNL 071800Z AUTO 03010KT 9SM SCT010 BKN014 10/08 A2978 RMK AO1 SLP094
SPECI CYNL 071710Z AUTO 03010KT 9SM BKN013 09/07 A2980 RMK AO1 SLP100
SPECI CYNL 071708Z AUTO 02009KT 9SM SCT013 BKN022 09/07 A2980 RMK AO1 SLP100
METAR CYNL 071700Z AUTO 03008KT 9SM FEW014 SCT028 09/07 A2980 RMK AO1 SLP100
SPECI CYNL 071653Z AUTO 02007KT 9SM SCT014 BKN042 09/07 A2980 RMK AO1 SLP101
SPECI CYNL 071642Z AUTO 01005KT 9SM VV023 09/07 A2981 RMK AO1 SLP103
SPECI CYNL 071640Z AUTO 03007KT 9SM VV027 09/07 A2981 RMK AO1 SLP103
SPECI CYNL 071635Z AUTO 03007KT 9SM SCT014 BKN021 09/06 A2981 RMK AO1 SLP104
SPECI CYNL 071623Z AUTO 03008KT 9SM BKN014 OVC020 09/06 A2981 RMK AO1 SLP103
SPECI CYNL 071614Z AUTO 03007KT 9SM SCT014 BKN021 BKN064 09/06 A2981 RMK AO1 SLP103
SPECI CYNL 071607Z AUTO 03008KT 9SM BKN014 09/06 A2981 RMK AO1 SLP104
METAR CYNL 071600Z AUTO 02009KT 9SM FEW015 SCT064 09/06 A2982 RMK AO1 SLP105
METAR CYNL 071500Z AUTO 03009KT 9SM FEW044 09/05 A2983 RMK AO1 SLP109
METAR CYNL 071400Z AUTO 04008KT 9SM BKN038 09/04 A2983 RMK AO1 SLP108
METAR CYNL 071300Z AUTO 03007KT 9SM BKN039 08/04 A2984 RMK AO1 SLP112
METAR CYNL 071200Z AUTO 01006KT 9SM BKN082 07/03 A2985 RMK AO1 SLP114
METAR CYNL 071100Z AUTO 02008KT 9SM BKN068 07/03 A2985 RMK AO1 PRESFR SLP113
METAR CYNL 071000Z AUTO 00007KT 9SM OVC064 07/03 A2987 RMK AO1 SLP121
METAR CYNL 070900Z AUTO 01006KT 9SM BKN044 07/03 A2988 RMK AO1 SLP126
METAR CYNL 070800Z AUTO 01007KT 9SM BKN034 BKN072 07/03 A2989 RMK AO1 SLP130
METAR CYNL 070700Z AUTO 00006KT 9SM SCT068 07/03 A2990 RMK AO1 SLP131
METAR CYNL 070600Z AUTO 00006KT 9SM FEW044 SCT066 07/03 A2989 RMK AO1 SLP131
METAR CYNL 070500Z AUTO 00007KT 9SM SCT068 08/03 A2990 RMK AO1 SLP133
METAR CYNL 070400Z AUTO 32005KT 9SM FEW072 09/03 A2990 RMK AO1 SLP133
METAR CYNL 070300Z AUTO 00004KT 9SM CLR 11/03 A2989 RMK AO1 SLP130
METAR CYNL 070200Z AUTO 06005KT 9SM OVC050 12/03 A2989 RMK AO1 SLP130
METAR CYNL 070100Z AUTO 33005KT 9SM BKN056 14/02 A2988 RMK AO1 SLP125
METAR CYNL 070000Z AUTO 26003KT 9SM CLR 14/02 A2988 RMK AO1 SLP124
METAR CYNL 062300Z AUTO 28004KT 250V310 9SM FEW060 13/02 A2988 RMK AO1 SLP126
METAR CYNL 062200Z AUTO 19006KT 160V230 9SM SCT062 13/02 A2989 RMK AO1 SLP129
METAR CYNL 062100Z AUTO 19007KT 150V230 9SM BKN047 13/02 A2989 RMK AO1 SLP130
METAR CYNL 062000Z AUTO 25006KT 9SM SCT045 12/02 A2988 RMK AO1 SLP128
METAR CYNL 061900Z AUTO 22007KT 9SM FEW039 11/01 A2989 RMK AO1 SLP129
METAR CYNL 061800Z AUTO 23006KT 9SM SCT033 10/02 A2990 RMK AO1 SLP134
SPECI CYNL 061713Z AUTO 23008KT 200V260 9SM BKN031 10/02 A2990 RMK AO1 SLP134
METAR CYNL 061700Z AUTO 23007KT 9SM BKN027 09/01 A2990 RMK AO1 SLP136
SPECI CYNL 061647Z AUTO 26006KT 9SM OVC025 09/02 A2990 RMK AO1 SLP136
METAR CYNL 061600Z AUTO 23005KT 9SM BKN022 BKN027 08/02 A2990 RMK AO1 SLP136
METAR CYNL 061500Z AUTO 23003KT 9SM OVC020 07/02 A2990 RMK AO1 SLP137
METAR CYNL 061400Z AUTO 24007KT 9SM OVC015 06/02 A2990 RMK AO1 SLP137
METAR CYNL 061300Z AUTO 26007KT 9SM BKN017 06/02 A2988 RMK AO1 SLP132
SPECI CYNL 061247Z AUTO 27005KT 9SM FEW014 BKN019 06/03 A2988 RMK AO1 SLP129
SPECI CYNL 061235Z AUTO 24008KT 9SM SCT019 06/03 A2988 RMK AO1 SLP128
METAR CYNL 061200Z AUTO 24003KT 9SM BKN019 05/03 A2988 RMK AO1 SLP127
SPECI CYNL 061158Z AUTO 24003KT 9SM BKN019 05/03 A2988 RMK AO1 SLP127
METAR CYNL 061100Z AUTO 26002KT 9SM FEW017 05/03 A2987 RMK AO1 SLP125
METAR CYNL 061000Z AUTO 29004KT 9SM FEW009 SCT038 05/03 A2986 RMK AO1 SLP121
SPECI CYNL 060947Z AUTO 28004KT 9SM FEW009 SCT025 BKN040 05/04 A2986 RMK AO1 SLP120
SPECI CYNL 060937Z AUTO 28003KT 9SM SCT009 BKN025 OVC042 06/04 A2986 RMK AO1 SLP120
SPECI CYNL 060936Z AUTO 28002KT 9SM SCT010 BKN025 OVC042 06/04 A2986 RMK AO1 SLP120
SPECI CYNL 060929Z AUTO 27002KT 9SM FEW009 BKN024 OVC042 06/04 A2986 RMK AO1 SLP119
SPECI CYNL 060920Z AUTO 26004KT 9SM FEW010 BKN023 OVC042 06/04 A2985 RMK AO1 SLP119
SPECI CYNL 060917Z AUTO 27003KT 9SM FEW010 SCT021 BKN026 06/04 A2985 RMK AO1 SLP119
SPECI CYNL 060916Z AUTO 26003KT 9SM FEW010 BKN022 OVC042 06/04 A2985 RMK AO1 SLP119
METAR CYNL 060900Z AUTO 27004KT 9SM FEW020 OVC041 06/04 A2985 RMK AO1 SLP117
METAR CYNL 060800Z AUTO 26004KT 9SM OVC042 06/05 A2984 RMK AO1 SLP114
METAR CYNL 060700Z AUTO 28003KT 9SM BKN033 BKN042 OVC090 07/05 A2984 RMK AO1 SLP112
METAR CYNL 060600Z AUTO 24003KT 9SM SCT037 OVC086 07/06 A2984 RMK AO1 SLP111
SPECI CYNL 060512Z AUTO 28003KT 9SM SCT016 BKN033 OVC040 07/06 A2983 RMK AO1 SLP110
METAR CYNL 060500Z AUTO 29002KT 9SM OVC016 07/06 A2983 RMK AO1 SLP109
SPECI CYNL 060439Z AUTO 27002KT 9SM BKN018 BKN045 OVC078 07/06 A2983 RMK AO1 SLP110
METAR CYNL 060400Z AUTO 22004KT 9SM BKN076 OVC096 07/06 A2982 RMK AO1 SLP108
METAR CYNL 060300Z AUTO 00000KT 9SM FEW031 BKN090 08/07 A2982 RMK AO1 SLP106
SPECI CYNL 060242Z AUTO 28003KT 9SM FEW019 SCT028 BKN039 09/07 A2981 RMK AO1 SLP104
SPECI CYNL 060241Z AUTO 27002KT 9SM VV029 09/07 A2981 RMK AO1 SLP104
METAR CYNL 060200Z AUTO 22005KT 9SM FEW031 SCT043 09/06 A2981 RMK AO1 SLP101
METAR CYNL 060100Z AUTO 26006KT 9SM SCT040 BKN060 11/04 A2980 RMK AO1 SLP097
METAR CYNL 060000Z AUTO 26006KT 9SM SCT040 BKN088 11/03 A2979 RMK AO1 SLP095
METAR CYNL 052300Z AUTO 28012KT 9SM SCT037 BKN086 12/03 A2979 RMK AO1 SLP094
METAR CYNL 052200Z AUTO 27009G17KT 9SM FEW036 BKN080 11/03 A2978 RMK AO1 SLP093
METAR CYNL 052100Z AUTO 27011G18KT 9SM SCT036 12/03 A2977 RMK AO1 SLP090
METAR CYNL 052000Z AUTO 28012G19KT 9SM SCT037 BKN180 11/03 A2977 RMK AO1 SLP087
METAR CYNL 051900Z AUTO 26010G16KT 9SM FEW036 SCT066 BKN190 11/03 A2976 RMK AO1 SLP084
METAR CYNL 051800Z AUTO 26010G18KT 9SM FEW036 SCT064 BKN160 11/03 A2975 RMK AO1 SLP082
METAR CYNL 051700Z AUTO 24009KT 9SM FEW150 10/05 A2974 RMK AO1 SLP081
SPECI CYNL 051624Z AUTO 24007KT 9SM FEW014 SCT022 BKN031 08/04 A2975 RMK AO1 SLP085
SPECI CYNL 051623Z AUTO 24008KT 9SM VV029 07/04 A2975 RMK AO1 SLP086
SPECI CYNL 051612Z AUTO 27009KT 9SM SCT017 BKN031 08/05 A2975 RMK AO1 SLP086
SPECI CYNL 051609Z AUTO 27007KT 7SM FEW015 BKN029 08/05 A2975 RMK AO1 SLP086
SPECI CYNL 051608Z AUTO 27008G17KT 6SM FEW015 BKN030 08/05 A2975 RMK AO1 SLP086
SPECI CYNL 051607Z AUTO 27009G17KT 6SM FEW016 BKN029 08/05 A2975 RMK AO1 SLP085
SPECI CYNL 051605Z AUTO 27008G17KT 9SM SCT023 BKN033 08/05 A2975 RMK AO1 SLP085
SPECI CYNL 051603Z AUTO 27010G18KT 8SM BKN027 08/05 A2975 RMK AO1 SLP085
METAR CYNL 051600Z AUTO 27009G18KT 6SM SCT027 08/05 A2975 RMK AO1 SLP085
METAR CYNL 051500Z AUTO 24008KT 9SM SCT020 BKN035 OVC062 09/05 A2974 RMK AO1 SLP082
SPECI CYNL 051418Z AUTO 23005KT 9SM SCT012 BKN033 08/06 A2974 RMK AO1 SLP083
SPECI CYNL 051417Z AUTO 24005KT 9SM SCT012 BKN026 BKN042 08/06 A2974 RMK AO1 SLP083
SPECI CYNL 051413Z AUTO 23003KT 9SM FEW011 SCT017 BKN033 08/06 A2975 RMK AO1 SLP083
SPECI CYNL 051412Z AUTO 23005KT 9SM FEW011 SCT016 BKN026 08/06 A2975 RMK AO1 SLP083
SPECI CYNL 051411Z AUTO 23005KT 9SM FEW011 BKN016 BKN042 08/06 A2975 RMK AO1 SLP083
SPECI CYNL 051406Z AUTO 25004KT 9SM FEW012 SCT016 BKN029 08/06 A2975 RMK AO1 SLP083
METAR CYNL 051400Z AUTO 26003KT 9SM FEW011 BKN017 OVC045 08/06 A2974 RMK AO1 SLP083
SPECI CYNL 051359Z AUTO 26004KT 9SM FEW012 BKN017 OVC045 08/06 A2974 RMK AO1 SLP083
SPECI CYNL 051352Z AUTO 22004KT 9SM FEW011 SCT016 BKN026 08/06 A2975 RMK AO1 SLP083
SPECI CYNL 051326Z AUTO 25003KT 9SM FEW009 BKN044 BKN070 08/06 A2975 RMK AO1 SLP085
METAR CYNL 051300Z AUTO 26003KT 9SM FEW016 SCT034 BKN072 07/06 A2975 RMK AO1 SLP085
SPECI CYNL 051249Z AUTO 24003KT 9SM SCT016 BKN034 OVC072 07/06 A2975 RMK AO1 SLP086
SPECI CYNL 051244Z AUTO 26004KT 9SM BKN016 OVC072 07/06 A2975 RMK AO1 SLP086
METAR CYNL 051200Z AUTO 23003KT 9SM FEW068 BKN090 07/07 A2975 RMK AO1 SLP086
METAR CYNL 051100Z AUTO 28003KT 9SM FEW066 BKN100 06/06 A2975 RMK AO1 SLP084
METAR CYNL 051000Z AUTO 20003KT 9SM FEW054 SCT072 06/06 A2975 RMK AO1 SLP084
METAR CYNL 050900Z AUTO 23003KT 9SM BKN033 BKN043 OVC060 07/07 A2975 RMK AO1 SLP081
SPECI CYNL 050809Z AUTO 21005KT 3SM VV030 07/07 A2975 RMK AO1 SLP082
SPECI CYNL 050803Z AUTO 22004KT 2SM VV029 07/07 A2975 RMK AO1 SLP082
METAR CYNL 050800Z AUTO 22005KT 2 1/2SM FEW031 BKN040 BKN049 07/07 A2975 RMK AO1 SLP082
SPECI CYNL 050759Z AUTO 22005KT 2 1/2SM FEW031 BKN040 BKN049 07/07 A2975 RMK AO1 SLP083
METAR CYNL 050700Z AUTO 22005KT 9SM FEW048 OVC072 07/06 A2974 RMK AO1 SLP081
METAR CYNL 050600Z AUTO 21005KT 9SM BKN033 OVC045 08/06 A2975 RMK AO1 SLP081
METAR CYNL 050500Z AUTO 18003KT 9SM FEW020 SCT025 BKN034 07/06 A2975 RMK AO1 SLP084
SPECI CYNL 050439Z AUTO 19002KT 9SM FEW021 SCT026 BKN030 07/06 A2975 RMK AO1 SLP084
SPECI CYNL 050431Z AUTO 22003KT 9SM BKN026 OVC044 07/06 A2975 RMK AO1 SLP085
SPECI CYNL 050429Z AUTO 22003KT 9SM SCT024 OVC030 07/06 A2975 RMK AO1 SLP085
SPECI CYNL 050428Z AUTO 23003KT 9SM OVC027 07/06 A2975 RMK AO1 SLP085
SPECI CYNL 050423Z AUTO 22003KT 9SM FEW024 BKN030 OVC044 07/06 A2975 RMK AO1 SLP085
SPECI CYNL 050422Z AUTO 23002KT 9SM BKN029 OVC044 07/06 A2975 RMK AO1 SLP085
METAR CYNL 050400Z AUTO 20002KT 9SM BKN033 OVC044 07/06 A2975 RMK AO1 SLP085
METAR CYNL 050300Z AUTO 21004KT 9SM SCT037 07/06 A2975 RMK AO1 SLP085
METAR CYNL 050200Z AUTO 25008KT 9SM FEW056 BKN070 08/05 A2975 RMK AO1 SLP083
METAR CYNL 050100Z AUTO 27009G18KT 9SM FEW011 SCT014 BKN036 08/05 A2974 RMK AO1 SLP083
SPECI CYNL 050057Z AUTO 27011G18KT 9SM SCT011 BKN018 BKN045 08/05 A2974 RMK AO1 SLP083
SPECI CYNL 050047Z AUTO 25010G17KT 6SM SCT011 BKN014 BKN017 07/06 A2975 RMK AO1 SLP084
SPECI CYNL 050026Z AUTO 26010G17KT 8SM BKN017 BKN043 08/05 A2974 RMK AO1 SLP082
SPECI CYNL 050008Z AUTO 27010G22KT 9SM SCT015 BKN031 BKN042 08/05 A2973 RMK AO1 SLP079
METAR CYNL 050000Z AUTO 26015G22KT 9SM SCT016 BKN021 BKN031 08/05 A2973 RMK AO1 SLP079
SPECI CYNL 042351Z AUTO 27009G20KT 9SM SCT013 BKN017 OVC024 08/06 A2973 RMK AO1 PRESRR SLP079
SPECI CYNL 042349Z AUTO 27012G20KT 9SM BKN014 OVC024 08/05 A2973 RMK AO1 PRESRR SLP079
SPECI CYNL 042347Z AUTO 26011G20KT 9SM SCT014 BKN018 OVC024 08/05 A2973 RMK AO1 PRESRR SLP079
SPECI CYNL 042345Z AUTO 27011G22KT 9SM BKN014 BKN018 OVC024 08/05 A2973 RMK AO1 PRESRR SLP078
SPECI CYNL 042319Z AUTO 25010G20KT 9SM FEW014 BKN022 09/06 A2972 RMK AO1 PRESRR SLP074
SPECI CYNL 042312Z AUTO 26014G20KT 9SM SCT016 BKN042 08/06 A2971 RMK AO1 PRESRR SLP073
SPECI CYNL 042311Z AUTO 26014G20KT 9SM SCT015 BKN025 08/06 A2971 RMK AO1 PRESRR SLP073
SPECI CYNL 042309Z AUTO 26012G21KT 9SM SCT014 BKN024 08/06 A2972 RMK AO1 PRESRR SLP073
SPECI CYNL 042307Z AUTO 26012G21KT 9SM SCT014 BKN026 BKN040 08/06 A2971 RMK AO1 PRESRR SLP073
METAR CYNL 042300Z AUTO 25014G21KT 9SM SCT014 BKN020 BKN028 09/06 A2971 RMK AO1 PRESRR SLP072
SPECI CYNL 042254Z AUTO 25013G20KT 9SM SCT014 BKN019 BKN040 09/06 A2971 RMK AO1 PRESRR SLP070
SPECI CYNL 042247Z AUTO 26011G20KT 9SM FEW014 SCT019 BKN029 09/06 A2971 RMK AO1 PRESRR SLP069
SPECI CYNL 042246Z AUTO 26010G20KT 9SM FEW014 SCT019 BKN030 09/06 A2971 RMK AO1 PRESRR SLP069
SPECI CYNL 042245Z AUTO 26010G20KT 9SM SCT014 BKN029 09/06 A2970 RMK AO1 PRESRR SLP069
SPECI CYNL 042233Z AUTO 26012G22KT 9SM SCT018 BKN023 10/06 A2970 RMK AO1 PRESRR SLP067
SPECI CYNL 042219Z AUTO 26011G20KT 9SM SCT017 BKN210 10/07 A2969 RMK AO1 PRESRR SLP064
SPECI CYNL 042218Z AUTO 25012G20KT 9SM BKN017 10/07 A2969 RMK AO1 PRESRR SLP064
SPECI CYNL 042217Z AUTO 25011G21KT 9SM SCT015 BKN120 10/07 A2969 RMK AO1 PRESRR SLP064
SPECI CYNL 042216Z AUTO 26010G22KT 9SM BKN017 10/07 A2969 RMK AO1 PRESRR SLP064
METAR CYNL 042200Z AUTO 27014G23KT 9SM SCT019 BKN120 10/06 A2968 RMK AO1 PRESRR SLP061
SPECI CYNL 042158Z AUTO 27014G23KT 9SM FEW015 SCT022 BKN031 10/06 A2968 RMK AO1 PRESRR SLP061
SPECI CYNL 042128Z AUTO 26010G18KT 9SM BKN020 BKN220 10/07 A2967 RMK AO1 PRESRR SLP056
SPECI CYNL 042126Z AUTO 26011G18KT 9SM SCT021 BKN025 BKN220 10/07 A2967 RMK AO1 PRESRR SLP055
SPECI CYNL 042123Z AUTO 26011G18KT 9SM BKN021 10/07 A2966 RMK AO1 PRESRR SLP054
SPECI CYNL 042119Z AUTO 25010G18KT 9SM SCT021 BKN025 10/07 A2966 RMK AO1 PRESRR SLP053
SPECI CYNL 042118Z AUTO 25009G20KT 9SM BKN022 11/07 A2966 RMK AO1 PRESRR SLP053
SPECI CYNL 042108Z AUTO 25015G22KT 9SM FEW016 SCT023 BKN031 10/07 A2966 RMK AO1 PRESRR SLP053
SPECI CYNL 042102Z AUTO 25010G19KT 9SM FEW014 SCT018 BKN023 10/07 A2966 RMK AO1 PRESRR SLP052
METAR CYNL 042100Z AUTO 26012G19KT 9SM FEW014 SCT018 BKN030 10/07 A2966 RMK AO1 PRESRR SLP052
SPECI CYNL 042059Z AUTO 26011G19KT 9SM SCT016 BKN030 10/07 A2966 RMK AO1 PRESRR SLP051
SPECI CYNL 042054Z AUTO 25013G20KT 9SM FEW015 SCT023 BKN029 10/07 A2965 RMK AO1 PRESRR SLP051
SPECI CYNL 042047Z AUTO 26013G20KT 9SM SCT014 BKN041 10/07 A2965 RMK AO1 PRESRR SLP050
SPECI CYNL 042046Z AUTO 25014G20KT 9SM FEW010 SCT015 BKN028 10/07 A2965 RMK AO1 PRESRR SLP050
SPECI CYNL 042044Z AUTO 25013G18KT 9SM FEW010 SCT016 BKN030 10/07 A2965 RMK AO1 PRESRR SLP050
SPECI CYNL 042030Z AUTO 25011G18KT 9SM SCT012 BKN022 BKN040 09/08 A2965 RMK AO1 PRESRR SLP049
SPECI CYNL 042028Z AUTO 25010G18KT 4SM VV033 09/08 A2964 RMK AO1 PRESRR SLP049
SPECI CYNL 042027Z AUTO 25011G18KT 3SM FEW010 BKN014 OVC040 09/08 A2964 RMK AO1 PRESRR SLP049
SPECI CYNL 042026Z AUTO 25013G18KT 2 1/2SM BKN013 OVC040 09/08 A2965 RMK AO1 PRESRR SLP049
SPECI CYNL 042023Z AUTO 25010G18KT 3SM BKN012 BKN023 OVC033 09/08 A2964 RMK AO1 PRESRR SLP048
SPECI CYNL 042021Z AUTO 24012G17KT 2 1/2SM SCT010 BKN013 OVC024 09/08 A2964 RMK AO1 PRESRR SLP048
SPECI CYNL 042017Z AUTO 23011G16KT 1 3/4SM SCT011 BKN014 OVC025 10/08 A2964 RMK AO1 PRESRR SLP046
SPECI CYNL 042016Z AUTO 23011G16KT 2SM SCT011 BKN017 OVC026 10/08 A2964 RMK AO1 PRESRR SLP046
SPECI CYNL 042010Z AUTO 23012G19KT 9SM SCT012 BKN015 BKN027 10/08 A2964 RMK AO1 PRESRR SLP045
METAR CYNL 042000Z AUTO 23013G18KT 9SM BKN012 BKN028 09/08 A2963 RMK AO1 PRESRR SLP045
SPECI CYNL 041959Z AUTO 23012G18KT 9SM BKN011 OVC028 09/08 A2963 RMK AO1 PRESRR SLP045
SPECI CYNL 041957Z AUTO 22013G19KT 9SM SCT011 BKN018 OVC029 09/08 A2963 RMK AO1 SLP044
SPECI CYNL 041927Z AUTO 23014G19KT 9SM SCT008 BKN015 BKN021 09/08 A2962 RMK AO1 SLP041
SPECI CYNL 041923Z AUTO 22011G19KT 9SM BKN008 BKN021 OVC039 09/08 A2962 RMK AO1 SLP040
SPECI CYNL 041916Z AUTO 22011G18KT 3SM SCT008 BKN016 BKN021 09/09 A2962 RMK AO1 SLP039
SPECI CYNL 041915Z AUTO 23009G18KT 2SM SCT008 BKN016 BKN021 09/09 A2962 RMK AO1 SLP039
SPECI CYNL 041913Z AUTO 23012G18KT 1 1/2SM SCT009 BKN021 OVC027 09/09 A2962 RMK AO1 SLP038
SPECI CYNL 041911Z AUTO 22013KT 1 1/4SM SCT009 BKN022 OVC035 10/09 A2962 RMK AO1 SLP038
SPECI CYNL 041910Z AUTO 22013KT 1 3/4SM SCT009 BKN021 BKN026 10/09 A2962 RMK AO1 SLP038
SPECI CYNL 041902Z AUTO 22011G19KT 3SM SCT009 BKN015 BKN029 10/09 A2961 RMK AO1 SLP037
METAR CYNL 041900Z AUTO 22012G19KT 3SM SCT010 BKN021 OVC029 10/09 A2961 RMK AO1 SLP036
SPECI CYNL 041853Z AUTO 21014KT 5SM SCT010 BKN018 BKN022 10/08 A2961 RMK AO1 SLP035
SPECI CYNL 041838Z AUTO 21010G19KT 9SM FEW008 SCT011 BKN019 10/08 A2960 RMK AO1 SLP034
SPECI CYNL 041830Z AUTO 21012G19KT 9SM SCT007 BKN010 OVC024 09/08 A2960 RMK AO1 SLP033
SPECI CYNL 041822Z AUTO 20009G16KT 4SM BKN007 BKN010 OVC015 09/08 A2960 RMK AO1 SLP032
SPECI CYNL 041820Z AUTO 20011KT 2SM BKN007 OVC014 09/08 A2960 RMK AO1 SLP032
SPECI CYNL 041804Z AUTO 21010G17KT 3SM SCT007 BKN009 BKN013 09/08 A2959 RMK AO1 SLP031
SPECI CYNL 041803Z AUTO 22010G17KT 3SM SCT007 BKN010 BKN013 09/08 A2959 RMK AO1 SLP031
SPECI CYNL 041802Z AUTO 20012KT 2SM SCT007 BKN010 BKN013 09/08 A2959 RMK AO1 SLP031
METAR CYNL 041800Z AUTO 19008G16KT 1 1/2SM FEW007 SCT009 BKN010 09/09 A2959 RMK AO1 SLP031
SPECI CYNL 041758Z AUTO 20008G16KT 1 1/4SM FEW007 BKN010 OVC013 09/09 A2959 RMK AO1 SLP030
SPECI CYNL 041753Z AUTO 20010G17KT 1 1/2SM FEW008 BKN010 OVC013 09/08 A2959 RMK AO1 SLP030
SPECI CYNL 041751Z AUTO 19010G17KT 1 3/4SM BKN010 OVC013 09/08 A2959 RMK AO1 SLP030
SPECI CYNL 041749Z AUTO 19010G17KT 2 1/2SM BKN010 BKN013 OVC019 09/08 A2959 RMK AO1 SLP030
SPECI CYNL 041723Z AUTO 20010G15KT 9SM BKN013 BKN021 OVC190 10/08 A2959 RMK AO1 SLP029
SPECI CYNL 041720Z AUTO 19010KT 9SM SCT012 BKN015 BKN045 10/08 A2959 RMK AO1 SLP029
SPECI CYNL 041719Z AUTO 19009KT 9SM BKN013 BKN045 10/08 A2959 RMK AO1 SLP029
METAR CYNL 041700Z AUTO 20008G16KT 9SM SCT016 OVC022 09/08 A2959 RMK AO1 SLP030
SPECI CYNL 041608Z AUTO 19011G16KT 9SM FEW010 OVC015 09/08 A2959 RMK AO1 SLP027
METAR CYNL 041600Z AUTO 19009G16KT 9SM SCT010 BKN014 OVC018 09/08 A2959 RMK AO1 SLP027
SPECI CYNL 041553Z AUTO 20009G16KT 3SM FEW008 BKN010 BKN013 09/08 A2958 RMK AO1 SLP027
SPECI CYNL 041552Z AUTO 19011G16KT 2SM BKN009 BKN017 OVC033 09/08 A2958 RMK AO1 SLP027
SPECI CYNL 041550Z AUTO 19010KT 1 3/4SM BKN009 BKN017 OVC049 09/08 A2959 RMK AO1 SLP027
SPECI CYNL 041549Z AUTO 19010KT 2 1/2SM BKN010 BKN017 OVC049 09/08 A2959 RMK AO1 SLP027
SPECI CYNL 041546Z AUTO 19010KT 9SM BKN010 BKN016 OVC049 09/08 A2959 RMK AO1 SLP027
SPECI CYNL 041545Z AUTO 19010KT 9SM BKN009 BKN018 OVC049 09/08 A2958 RMK AO1 SLP027
SPECI CYNL 041543Z AUTO 18009KT 9SM BKN010 BKN017 OVC049 09/08 A2959 RMK AO1 SLP027
SPECI CYNL 041540Z AUTO 18010KT 9SM BKN009 BKN033 09/08 A2959 RMK AO1 SLP027
SPECI CYNL 041539Z AUTO 18011KT 9SM SCT008 BKN011 BKN033 09/08 A2959 RMK AO1 SLP027
SPECI CYNL 041535Z AUTO 18010KT 9SM BKN008 BKN032 09/08 A2959 RMK AO1 SLP027
SPECI CYNL 041529Z AUTO 18009KT 9SM SCT008 BKN012 BKN049 09/08 A2959 RMK AO1 SLP028
SPECI CYNL 041524Z AUTO 17009KT 9SM SCT007 BKN019 BKN049 09/08 A2959 RMK AO1 SLP027
SPECI CYNL 041519Z AUTO 18009KT 9SM FEW006 SCT008 BKN013 09/08 A2959 RMK AO1 SLP027
SPECI CYNL 041511Z AUTO 17010KT 9SM BKN007 BKN011 OVC020 09/08 A2959 RMK AO1 SLP028
SPECI CYNL 041510Z AUTO 17010KT 9SM FEW005 SCT007 BKN011 09/08 A2959 RMK AO1 SLP029
SPECI CYNL 041504Z AUTO 16009KT 4SM BKN005 BKN012 OVC020 09/08 A2959 RMK AO1 SLP029
SPECI CYNL 041503Z AUTO 17008KT 2 1/2SM BKN005 BKN012 OVC020 09/08 A2959 RMK AO1 SLP030
METAR CYNL 041500Z AUTO 17008KT 1 3/4SM SCT005 BKN006 BKN008 09/08 A2959 RMK AO1 SLP030
SPECI CYNL 041459Z AUTO 17009KT 2SM BKN005 OVC008 09/08 A2959 RMK AO1 SLP030
SPECI CYNL 041433Z AUTO 16010G16KT 9SM BKN005 OVC012 08/08 A2960 RMK AO1 SLP031
SPECI CYNL 041419Z AUTO 16010G16KT 3SM BKN004 OVC006 08/08 A2960 RMK AO1 SLP033
SPECI CYNL 041411Z AUTO 16009KT 2SM OVC003 08/08 A2960 RMK AO1 SLP034
SPECI CYNL 041409Z AUTO 16009KT 1 3/4SM OVC003 08/08 A2960 RMK AO1 SLP034
SPECI CYNL 041406Z AUTO 17009KT 2 1/2SM OVC003 08/08 A2960 RMK AO1 SLP034
SPECI CYNL 041403Z AUTO 16011KT 4SM OVC003 08/08 A2960 RMK AO1 SLP034
SPECI CYNL 041402Z AUTO 16010KT 2 1/2SM OVC003 08/08 A2960 RMK AO1 SLP034
SPECI CYNL 041401Z AUTO 16009KT 1 3/4SM OVC003 08/08 A2960 RMK AO1 SLP034
METAR CYNL 041400Z AUTO 16008KT 1 1/4SM OVC003 08/08 A2960 RMK AO1 SLP035
SPECI CYNL 041359Z AUTO 16009KT 1 1/4SM OVC003 08/07 A2960 RMK AO1 SLP034
SPECI CYNL 041358Z AUTO 16010KT 1 1/2SM OVC003 08/07 A2960 RMK AO1 SLP034
SPECI CYNL 041351Z AUTO 15010KT 3SM OVC003 07/07 A2960 RMK AO1 SLP034
SPECI CYNL 041350Z AUTO 15009KT 2SM OVC003 07/07 A2960 RMK AO1 SLP034
SPECI CYNL 041349Z AUTO 15009KT 1 1/2SM OVC003 07/07 A2960 RMK AO1 SLP034
SPECI CYNL 041346Z AUTO 15011KT 1SM OVC003 07/07 A2960 RMK AO1 SLP035
SPECI CYNL 041345Z AUTO 15010KT 3/4SM OVC003 07/07 A2960 RMK AO1 SLP035
SPECI CYNL 041343Z AUTO 15009KT 1 1/4SM OVC003 07/07 A2960 RMK AO1 SLP035
SPECI CYNL 041342Z AUTO 15008KT 1 1/2SM OVC003 07/07 A2960 RMK AO1 SLP035
SPECI CYNL 041339Z AUTO 15009KT 2 1/2SM OVC003 07/07 A2960 RMK AO1 SLP035
SPECI CYNL 041335Z AUTO 14011KT 3SM OVC003 07/07 A2960 RMK AO1 SLP034
SPECI CYNL 041332Z AUTO 15009G15KT 2SM OVC003 07/07 A2960 RMK AO1 SLP035
SPECI CYNL 041330Z AUTO 15009G15KT 1 3/4SM OVC003 07/07 A2960 RMK AO1 SLP035
SPECI CYNL 041327Z AUTO 15010G15KT 2 1/2SM OVC003 07/07 A2960 RMK AO1 SLP035
SPECI CYNL 041321Z AUTO 15009G17KT 3SM OVC003 07/07 A2960 RMK AO1 SLP034
SPECI CYNL 041319Z AUTO 14009G17KT 2SM OVC003 07/07 A2960 RMK AO1 SLP034
SPECI CYNL 041315Z AUTO 15012G17KT 1 3/4SM OVC003 07/07 A2960 RMK AO1 SLP035
SPECI CYNL 041305Z AUTO 14014G19KT 2 1/2SM OVC003 07/07 A2961 RMK AO1 SLP037
METAR CYNL 041300Z AUTO 14012G18KT 3SM OVC003 07/07 A2961 RMK AO1 SLP038
SPECI CYNL 041258Z AUTO 14010G19KT 3SM OVC003 07/07 A2961 RMK AO1 SLP037
SPECI CYNL 041255Z AUTO 14010G19KT 2 1/2SM OVC004 07/07 A2961 RMK AO1 PRESFR SLP037
SPECI CYNL 041252Z AUTO 15010G19KT 3SM OVC004 07/07 A2961 RMK AO1 PRESFR SLP036
SPECI CYNL 041250Z AUTO 14014KT 2 1/2SM OVC004 07/07 A2961 RMK AO1 PRESFR SLP036
SPECI CYNL 041216Z AUTO 14011G16KT 5SM OVC004 07/07 A2962 RMK AO1 PRESFR SLP040
SPECI CYNL 041204Z AUTO 14014G20KT 3SM OVC005 07/07 A2962 RMK AO1 PRESFR SLP042
SPECI CYNL 041202Z AUTO 14012G19KT 2SM OVC005 07/07 A2963 RMK AO1 PRESFR SLP042
METAR CYNL 041200Z AUTO 14013G19KT 1 3/4SM BKN005 OVC007 07/07 A2963 RMK AO1 PRESFR SLP042
SPECI CYNL 041155Z AUTO 13010G18KT 1 3/4SM BKN005 OVC006 07/07 A2963 RMK AO1 SLP040
SPECI CYNL 041152Z AUTO 14012G18KT 2 1/2SM OVC005 07/07 A2963 RMK AO1 SLP040
SPECI CYNL 041117Z AUTO 14009G16KT 3SM BKN005 OVC008 07/07 A2964 RMK AO1 SLP044
SPECI CYNL 041113Z AUTO 14009G17KT 2 1/2SM BKN005 OVC008 07/06 A2964 RMK AO1 SLP044
SPECI CYNL 041109Z AUTO 14011G17KT 3SM BKN005 OVC008 07/06 A2964 RMK AO1 SLP045
SPECI CYNL 041106Z AUTO 13012G17KT 2 1/2SM BKN005 OVC008 07/06 A2964 RMK AO1 SLP045
METAR CYNL 041100Z AUTO 13009G16KT 4SM BKN005 OVC008 07/06 A2965 RMK AO1 SLP046
SPECI CYNL 041050Z AUTO 14010KT 3SM BKN005 OVC011 07/06 A2965 RMK AO1 PRESFR SLP046
SPECI CYNL 041036Z AUTO 14010G18KT 2 1/2SM BKN005 OVC006 06/06 A2965 RMK AO1 PRESFR SLP047
SPECI CYNL 041031Z AUTO 13011G18KT 3SM BKN005 OVC009 06/06 A2965 RMK AO1 PRESFR SLP047
SPECI CYNL 041029Z AUTO 13013G18KT 2SM BKN005 OVC008 06/06 A2965 RMK AO1 PRESFR SLP047
SPECI CYNL 041024Z AUTO 13011G19KT 1 1/2SM OVC005 06/06 A2965 RMK AO1 PRESFR SLP047
SPECI CYNL 041003Z AUTO 13013KT 1 1/4SM BKN005 OVC007 07/06 A2966 RMK AO1 PRESFR SLP049
METAR CYNL 041000Z AUTO 13013G18KT 1 3/4SM BKN005 OVC007 07/06 A2966 RMK AO1 PRESFR SLP049
SPECI CYNL 040949Z AUTO 13012G17KT 1 1/2SM BKN005 OVC008 06/06 A2966 RMK AO1 PRESFR SLP051
SPECI CYNL 040934Z AUTO 13013G20KT 1 1/4SM OVC005 06/06 A2967 RMK AO1 PRESFR SLP053
SPECI CYNL 040930Z AUTO 13012G20KT 1 1/2SM OVC005 07/06 A2967 RMK AO1 PRESFR SLP053
SPECI CYNL 040916Z AUTO 13010G15KT 2SM BKN005 OVC009 06/06 A2967 RMK AO1 PRESFR SLP054
SPECI CYNL 040915Z AUTO 12010G15KT 2SM BKN004 OVC008 06/06 A2967 RMK AO1 PRESFR SLP055
SPECI CYNL 040912Z AUTO 13009G18KT 1 3/4SM BKN004 OVC008 06/06 A2968 RMK AO1 PRESFR SLP055
SPECI CYNL 040909Z AUTO 12010G18KT 2SM BKN004 OVC008 07/06 A2968 RMK AO1 PRESFR SLP056
SPECI CYNL 040904Z AUTO 12013G18KT 1 1/2SM BKN004 BKN006 OVC008 07/06 A2968 RMK AO1 PRESFR SLP057
METAR CYNL 040900Z AUTO 12010G21KT 1 1/4SM BKN004 BKN006 OVC008 07/06 A2968 RMK AO1 PRESFR SLP058
SPECI CYNL 040857Z AUTO 13009G21KT 1 3/4SM BKN004 BKN006 OVC007 07/06 A2969 RMK AO1 PRESFR SLP058
SPECI CYNL 040855Z AUTO 12011G21KT 1 3/4SM SCT004 BKN006 OVC008 07/06 A2969 RMK AO1 PRESFR SLP059
SPECI CYNL 040854Z AUTO 13011G21KT 2SM BKN005 OVC008 07/06 A2969 RMK AO1 PRESFR SLP059
SPECI CYNL 040853Z AUTO 13010G21KT 1 1/2SM BKN005 OVC008 07/06 A2969 RMK AO1 PRESFR SLP059
SPECI CYNL 040845Z AUTO 13009G16KT 1SM OVC005 07/06 A2969 RMK AO1 PRESFR SLP060
SPECI CYNL 040843Z AUTO 12010G16KT 2 1/2SM OVC005 07/06 A2969 RMK AO1 PRESFR SLP060
SPECI CYNL 040836Z AUTO 12012KT 3SM OVC005 07/06 A2969 RMK AO1 PRESFR SLP059
SPECI CYNL 040829Z AUTO 11011G20KT 2SM OVC006 07/06 A2969 RMK AO1 PRESFR SLP060
SPECI CYNL 040802Z AUTO 11010G15KT 3SM BKN005 OVC007 07/06 A2970 RMK AO1 PRESFR SLP065
METAR CYNL 040800Z AUTO 11008G15KT 2 1/2SM OVC006 07/06 A2971 RMK AO1 PRESFR SLP066
SPECI CYNL 040758Z AUTO 11010G15KT 2SM BKN006 OVC009 07/06 A2971 RMK AO1 PRESFR SLP069
SPECI CYNL 040756Z AUTO 11012KT 1 3/4SM BKN006 OVC010 07/06 A2971 RMK AO1 PRESFR SLP069
SPECI CYNL 040754Z AUTO 12009KT 2 1/2SM BKN006 OVC009 07/06 A2971 RMK AO1 PRESFR SLP069
SPECI CYNL 040745Z AUTO 10009KT 3SM BKN007 OVC010 07/06 A2971 RMK AO1 PRESFR SLP070
SPECI CYNL 040733Z AUTO 09008KT 4SM FEW008 BKN011 OVC015 07/06 A2972 RMK AO1 PRESFR SLP071
SPECI CYNL 040726Z AUTO 09010KT 9SM BKN011 BKN015 OVC022 07/06 A2972 RMK AO1 PRESFR SLP072
SPECI CYNL 040722Z AUTO 09009KT 9SM SCT011 BKN015 OVC022 07/06 A2972 RMK AO1 PRESFR SLP072
SPECI CYNL 040720Z AUTO 09010KT 9SM SCT011 BKN014 OVC022 07/06 A2972 RMK AO1 PRESFR SLP072
SPECI CYNL 040718Z AUTO 09009KT 9SM FEW011 BKN015 OVC023 07/06 A2972 RMK AO1 PRESFR SLP073
SPECI CYNL 040715Z AUTO 09009KT 9SM BKN014 OVC023 07/06 A2973 RMK AO1 PRESFR SLP074
METAR CYNL 040700Z AUTO 09008KT 9SM OVC024 07/06 A2973 RMK AO1 PRESFR SLP077
SPECI CYNL 040657Z AUTO 08008KT 9SM OVC024 07/06 A2974 RMK AO1 SLP079
SPECI CYNL 040637Z AUTO 10008KT 9SM BKN027 OVC033 07/06 A2976 RMK AO1 SLP086
SPECI CYNL 040620Z AUTO 11007KT 3SM OVC032 07/06 A2977 RMK AO1 SLP090
SPECI CYNL 040616Z AUTO 11007KT 2 1/2SM OVC032 07/06 A2977 RMK AO1 SLP090
METAR CYNL 040600Z AUTO 10006KT 4SM OVC031 07/06 A2977 RMK AO1 SLP091
METAR CYNL 040500Z AUTO 09006KT 9SM OVC032 07/07 A2979 RMK AO1 SLP098
METAR CYNL 040400Z AUTO 07007KT 9SM OVC033 07/07 A2979 RMK AO1 SLP101
METAR CYNL 040300Z AUTO 07006KT 9SM BKN030 OVC036 08/07 A2980 RMK AO1 SLP105
METAR CYNL 040200Z AUTO 07008KT 9SM OVC034 08/07 A2982 RMK AO1 SLP110
METAR CYNL 040100Z AUTO 06007KT 5SM OVC039 09/07 A2983 RMK AO1 SLP112
SPECI CYNL 040043Z AUTO 06006KT 3SM OVC038 09/07 A2983 RMK AO1 SLP114
SPECI CYNL 040042Z AUTO 06006KT 2 1/2SM OVC039 09/07 A2983 RMK AO1 SLP114
SPECI CYNL 040032Z AUTO 07007KT 3SM VV041 10/07 A2984 RMK AO1 SLP114
SPECI CYNL 040029Z AUTO 07005KT 2 1/2SM VV041 10/07 A2984 RMK AO1 SLP114
SPECI CYNL 040028Z AUTO 07006KT 3SM VV041 10/07 A2984 RMK AO1 SLP114
SPECI CYNL 040026Z AUTO 08006KT 2 1/2SM VV040 10/07 A2984 RMK AO1 SLP113
SPECI CYNL 040025Z AUTO 08006KT 3SM VV040 10/07 A2983 RMK AO1 SLP113
SPECI CYNL 040019Z AUTO 08006KT 2 1/2SM OVC037 10/07 A2983 RMK AO1 SLP112
SPECI CYNL 040004Z AUTO 09008KT 3SM BKN037 BKN064 11/06 A2983 RMK AO1 SLP109
SPECI CYNL 040002Z AUTO 10008KT 2 1/2SM BKN037 BKN062 12/06 A2983 RMK AO1 SLP109
METAR CYNL 040000Z AUTO 10007KT 4SM BKN036 BKN062 12/06 A2982 RMK AO1 SLP108
METAR CYNL 032300Z AUTO 12013G20KT 9SM SCT032 13/05 A2982 RMK AO1 SLP106
METAR CYNL 032200Z AUTO 13013G18KT 9SM CLR 13/05 A2981 RMK AO1 SLP104
METAR CYNL 032100Z AUTO 12012G18KT 9SM FEW210 13/05 A2983 RMK AO1 SLP110
METAR CYNL 032000Z AUTO 12012G17KT 9SM FEW024 11/05 A2984 RMK AO1 SLP116
SPECI CYNL 031920Z AUTO 13007KT 9SM SCT017 BKN170 11/05 A2985 RMK AO1 SLP119
METAR CYNL 031900Z AUTO 13011G16KT 9SM OVC015 10/05 A2985 RMK AO1 SLP121
SPECI CYNL 031850Z AUTO 12009KT 9SM OVC015 10/05 A2986 RMK AO1 SLP122
METAR CYNL 031800Z AUTO 15009KT 9SM OVC011 08/05 A2987 RMK AO1 SLP126
SPECI CYNL 031733Z AUTO 12011KT 9SM OVC010 08/05 A2986 RMK AO1 SLP126
METAR CYNL 031700Z AUTO 14011KT 9SM OVC008 07/04 A2987 RMK AO1 SLP128
METAR CYNL 031600Z AUTO 13011KT 9SM OVC008 06/04 A2987 RMK AO1 SLP130
METAR CYNL 031500Z AUTO 12009KT 9SM OVC007 06/04 A2987 RMK AO1 SLP130
METAR CYNL 031400Z AUTO 14011KT 9SM OVC008 06/04 A2987 RMK AO1 SLP130
METAR CYNL 031300Z AUTO 12008KT 9SM BKN008 OVC009 06/04 A2988 RMK AO1 SLP130
METAR CYNL 031200Z AUTO 12008KT 9SM OVC007 05/04 A2987 RMK AO1 SLP130
METAR CYNL 031100Z AUTO 12007KT 9SM OVC008 05/04 A2987 RMK AO1 SLP129
SPECI CYNL 031010Z AUTO 12005KT 9SM OVC009 05/03 A2987 RMK AO1 SLP127
METAR CYNL 031000Z AUTO 12006KT 9SM BKN010 OVC011 05/03 A2986 RMK AO1 SLP127
METAR CYNL 030900Z AUTO 12006KT 9SM OVC013 04/03 A2987 RMK AO1 SLP129
SPECI CYNL 030841Z AUTO 12004KT 9SM BKN014 04/03 A2987 RMK AO1 SLP130
SPECI CYNL 030835Z AUTO 10005KT 9SM BKN015 04/03 A2986 RMK AO1 SLP129
METAR CYNL 030800Z AUTO 11004KT 9SM CLR 04/03 A2986 RMK AO1 SLP128
SPECI CYNL 030733Z AUTO 13004KT 9SM BKN030 05/03 A2987 RMK AO1 SLP130
METAR CYNL 030700Z AUTO 14006KT 9SM BKN028 OVC060 06/04 A2987 RMK AO1 SLP130
SPECI CYNL 030650Z AUTO 14007KT 9SM BKN028 OVC060 06/03 A2987 RMK AO1 SLP132
METAR CYNL 030600Z AUTO 12007KT 9SM FEW027 SCT076 06/03 A2987 RMK AO1 SLP131
METAR CYNL 030500Z AUTO 14006KT 9SM OVC044 07/03 A2988 RMK AO1 SLP134
METAR CYNL 030400Z AUTO 15009KT 9SM OVC044 07/03 A2987 RMK AO1 SLP131
METAR CYNL 030300Z AUTO 15011G19KT 9SM OVC043 07/02 A2986 RMK AO1 SLP126
METAR CYNL 030200Z AUTO 15012G21KT 9SM OVC047 08/02 A2986 RMK AO1 SLP125
METAR CYNL 030100Z AUTO 15016G23KT 9SM OVC050 08/02 A2986 RMK AO1 SLP126
METAR CYNL 030000Z AUTO 15016G25KT 9SM OVC054 08/03 A2987 RMK AO1 SLP129
METAR CYNL 022300Z AUTO 14016G25KT 9SM SCT017 08/03 A2988 RMK AO1 SLP134
METAR CYNL 022200Z AUTO 14019G26KT 9SM FEW018 BKN062 07/03 A2988 RMK AO1 SLP136
SPECI CYNL 022111Z AUTO 14013G22KT 9SM SCT015 OVC062 06/03 A2990 RMK AO1 SLP142
METAR CYNL 022100Z AUTO 14012G23KT 9SM BKN016 OVC062 06/03 A2990 RMK AO1 SLP143
SPECI CYNL 022051Z AUTO 14017G23KT 9SM OVC015 06/03 A2990 RMK AO1 SLP143
SPECI CYNL 022034Z AUTO 14016G22KT 9SM BKN014 OVC064 06/03 A2990 RMK AO1 SLP143